<?xml version='1.0' encoding='UTF-8'?><gpx version="1.1" creator="JPX - https://github.com/jenetics/jpx" xmlns="http://www.topografix.com/GPX/1/1"><trk><trkseg><trkpt lat="46.0695478" lon="13.2114706"><ele>112.0</ele><time>2026-04-25T07:23:56.717Z</time></trkpt><trkpt lat="46.0695153" lon="13.2113808"><ele>112.0</ele><time>2026-04-25T07:23:58.756Z</time></trkpt><trkpt lat="46.0694802" lon="13.2111849"><ele>112.0</ele><time>2026-04-25T07:23:59.716Z</time></trkpt><trkpt lat="46.0694445" lon="13.210979"><ele>112.0</ele><time>2026-04-25T07:24:00.716Z</time></trkpt><trkpt lat="46.0694115" lon="13.2108302"><ele>112.00000000000001</ele><time>2026-04-25T07:24:01.716Z</time></trkpt><trkpt lat="46.0693799" lon="13.2107076"><ele>112.0</ele><time>2026-04-25T07:24:02.717Z</time></trkpt><trkpt lat="46.0693433" lon="13.2106052"><ele>112.0</ele><time>2026-04-25T07:24:03.717Z</time></trkpt><trkpt lat="46.0693043" lon="13.2104993"><ele>112.0</ele><time>2026-04-25T07:24:04.716Z</time></trkpt><trkpt lat="46.0692696" lon="13.2103796"><ele>112.00000000000001</ele><time>2026-04-25T07:24:05.717Z</time></trkpt><trkpt lat="46.0692386" lon="13.2102708"><ele>112.0</ele><time>2026-04-25T07:24:06.717Z</time></trkpt><trkpt lat="46.0692066" lon="13.2101785"><ele>112.00000000000001</ele><time>2026-04-25T07:24:07.717Z</time></trkpt><trkpt lat="46.0691652" lon="13.2100524"><ele>112.0</ele><time>2026-04-25T07:24:09.716Z</time></trkpt><trkpt lat="46.0691084" lon="13.2099974"><ele>112.0</ele><time>2026-04-25T07:24:14.78Z</time></trkpt><trkpt lat="46.0690333" lon="13.21002"><ele>112.0</ele><time>2026-04-25T07:24:15.717Z</time></trkpt><trkpt lat="46.0689733" lon="13.2100617"><ele>112.00000000000001</ele><time>2026-04-25T07:24:16.716Z</time></trkpt><trkpt lat="46.068905" lon="13.2101067"><ele>112.0</ele><time>2026-04-25T07:24:17.716Z</time></trkpt><trkpt lat="46.068835" lon="13.2101533"><ele>112.39999999999999</ele><time>2026-04-25T07:24:18.717Z</time></trkpt><trkpt lat="46.0687583" lon="13.210205"><ele>112.79999999999998</ele><time>2026-04-25T07:24:19.717Z</time></trkpt><trkpt lat="46.0686717" lon="13.21026"><ele>113.2</ele><time>2026-04-25T07:24:20.717Z</time></trkpt><trkpt lat="46.068575" lon="13.210305"><ele>113.6</ele><time>2026-04-25T07:24:21.716Z</time></trkpt><trkpt lat="46.06848" lon="13.210365"><ele>114.0</ele><time>2026-04-25T07:24:22.716Z</time></trkpt><trkpt lat="46.0683883" lon="13.2104233"><ele>114.0</ele><time>2026-04-25T07:24:23.716Z</time></trkpt><trkpt lat="46.0683117" lon="13.2104767"><ele>114.0</ele><time>2026-04-25T07:24:24.717Z</time></trkpt><trkpt lat="46.068235" lon="13.21052"><ele>114.0</ele><time>2026-04-25T07:24:25.717Z</time></trkpt><trkpt lat="46.068165" lon="13.2105633"><ele>114.0</ele><time>2026-04-25T07:24:26.717Z</time></trkpt><trkpt lat="46.0680983" lon="13.2106083"><ele>114.0</ele><time>2026-04-25T07:24:27.717Z</time></trkpt><trkpt lat="46.0680233" lon="13.2106533"><ele>114.0</ele><time>2026-04-25T07:24:28.716Z</time></trkpt><trkpt lat="46.0679433" lon="13.2107033"><ele>113.66666666666667</ele><time>2026-04-25T07:24:29.717Z</time></trkpt><trkpt lat="46.06786" lon="13.2107583"><ele>113.33333333333334</ele><time>2026-04-25T07:24:30.717Z</time></trkpt><trkpt lat="46.0677817" lon="13.2108067"><ele>113.0</ele><time>2026-04-25T07:24:31.716Z</time></trkpt><trkpt lat="46.067715" lon="13.210855"><ele>112.66666666666667</ele><time>2026-04-25T07:24:32.717Z</time></trkpt><trkpt lat="46.0676233" lon="13.2109033"><ele>112.33333333333334</ele><time>2026-04-25T07:24:34.717Z</time></trkpt><trkpt lat="46.0675617" lon="13.2108817"><ele>112.0</ele><time>2026-04-25T07:24:36.717Z</time></trkpt><trkpt lat="46.067515" lon="13.2107667"><ele>112.0</ele><time>2026-04-25T07:24:38.717Z</time></trkpt><trkpt lat="46.067475" lon="13.2105617"><ele>111.99999999999999</ele><time>2026-04-25T07:24:40.717Z</time></trkpt><trkpt lat="46.06745" lon="13.2104533"><ele>111.99999999999999</ele><time>2026-04-25T07:24:41.717Z</time></trkpt><trkpt lat="46.0674217" lon="13.2103433"><ele>112.0</ele><time>2026-04-25T07:24:42.717Z</time></trkpt><trkpt lat="46.0673867" lon="13.21023"><ele>112.0</ele><time>2026-04-25T07:24:43.717Z</time></trkpt><trkpt lat="46.0673517" lon="13.21011"><ele>111.83333333333334</ele><time>2026-04-25T07:24:44.717Z</time></trkpt><trkpt lat="46.0673167" lon="13.20999"><ele>111.66666666666667</ele><time>2026-04-25T07:24:45.716Z</time></trkpt><trkpt lat="46.06728" lon="13.2098717"><ele>111.5</ele><time>2026-04-25T07:24:46.717Z</time></trkpt><trkpt lat="46.0672433" lon="13.209755"><ele>111.33333333333334</ele><time>2026-04-25T07:24:47.716Z</time></trkpt><trkpt lat="46.0672067" lon="13.2096367"><ele>111.16666666666667</ele><time>2026-04-25T07:24:48.717Z</time></trkpt><trkpt lat="46.067175" lon="13.2095217"><ele>111.0</ele><time>2026-04-25T07:24:49.716Z</time></trkpt><trkpt lat="46.0671417" lon="13.2094017"><ele>110.83333333333333</ele><time>2026-04-25T07:24:50.717Z</time></trkpt><trkpt lat="46.0671067" lon="13.2092883"><ele>110.66666666666666</ele><time>2026-04-25T07:24:51.717Z</time></trkpt><trkpt lat="46.0670717" lon="13.20918"><ele>110.5</ele><time>2026-04-25T07:24:52.717Z</time></trkpt><trkpt lat="46.0670333" lon="13.2090717"><ele>110.33333333333333</ele><time>2026-04-25T07:24:53.717Z</time></trkpt><trkpt lat="46.066995" lon="13.2089583"><ele>110.16666666666666</ele><time>2026-04-25T07:24:54.717Z</time></trkpt><trkpt lat="46.0669583" lon="13.2088533"><ele>110.0</ele><time>2026-04-25T07:24:55.716Z</time></trkpt><trkpt lat="46.0669267" lon="13.20875"><ele>109.83333333333333</ele><time>2026-04-25T07:24:56.716Z</time></trkpt><trkpt lat="46.0669017" lon="13.20866"><ele>109.66666666666666</ele><time>2026-04-25T07:24:57.716Z</time></trkpt><trkpt lat="46.0668483" lon="13.2085267"><ele>109.5</ele><time>2026-04-25T07:24:59.716Z</time></trkpt><trkpt lat="46.066785" lon="13.2085"><ele>109.33333333333334</ele><time>2026-04-25T07:25:01.716Z</time></trkpt><trkpt lat="46.0667417" lon="13.208595"><ele>109.16666666666667</ele><time>2026-04-25T07:25:03.716Z</time></trkpt><trkpt lat="46.0666983" lon="13.20876"><ele>109.0</ele><time>2026-04-25T07:25:05.717Z</time></trkpt><trkpt lat="46.0666583" lon="13.208925"><ele>109.00000000000001</ele><time>2026-04-25T07:25:07.717Z</time></trkpt><trkpt lat="46.0666067" lon="13.2090883"><ele>109.0</ele><time>2026-04-25T07:25:09.716Z</time></trkpt><trkpt lat="46.06658" lon="13.2091717"><ele>109.0</ele><time>2026-04-25T07:25:10.717Z</time></trkpt><trkpt lat="46.0665533" lon="13.209255"><ele>109.0</ele><time>2026-04-25T07:25:11.717Z</time></trkpt><trkpt lat="46.0665233" lon="13.2093367"><ele>109.00000000000001</ele><time>2026-04-25T07:25:12.717Z</time></trkpt><trkpt lat="46.0664567" lon="13.2094917"><ele>109.0</ele><time>2026-04-25T07:25:14.717Z</time></trkpt><trkpt lat="46.0663917" lon="13.209645"><ele>109.0</ele><time>2026-04-25T07:25:16.717Z</time></trkpt><trkpt lat="46.0663433" lon="13.20979"><ele>109.0</ele><time>2026-04-25T07:25:18.716Z</time></trkpt><trkpt lat="46.0662767" lon="13.2099483"><ele>109.0</ele><time>2026-04-25T07:25:20.716Z</time></trkpt><trkpt lat="46.0662433" lon="13.2100283"><ele>109.0</ele><time>2026-04-25T07:25:21.717Z</time></trkpt><trkpt lat="46.066185" lon="13.2101983"><ele>109.0</ele><time>2026-04-25T07:25:23.717Z</time></trkpt><trkpt lat="46.0661583" lon="13.2102933"><ele>109.0</ele><time>2026-04-25T07:25:24.717Z</time></trkpt><trkpt lat="46.066125" lon="13.2103767"><ele>109.0</ele><time>2026-04-25T07:25:25.716Z</time></trkpt><trkpt lat="46.0660883" lon="13.2104533"><ele>109.0</ele><time>2026-04-25T07:25:26.716Z</time></trkpt><trkpt lat="46.066035" lon="13.2105267"><ele>109.0</ele><time>2026-04-25T07:25:27.717Z</time></trkpt><trkpt lat="46.0659783" lon="13.2105917"><ele>109.0</ele><time>2026-04-25T07:25:28.716Z</time></trkpt><trkpt lat="46.0659167" lon="13.210645"><ele>109.0</ele><time>2026-04-25T07:25:29.717Z</time></trkpt><trkpt lat="46.0658517" lon="13.2107017"><ele>109.0</ele><time>2026-04-25T07:25:30.716Z</time></trkpt><trkpt lat="46.0657733" lon="13.210755"><ele>108.50000000000001</ele><time>2026-04-25T07:25:31.716Z</time></trkpt><trkpt lat="46.0657017" lon="13.2108"><ele>108.0</ele><time>2026-04-25T07:25:32.717Z</time></trkpt><trkpt lat="46.0656333" lon="13.2108417"><ele>107.5</ele><time>2026-04-25T07:25:33.717Z</time></trkpt><trkpt lat="46.0655717" lon="13.2108683"><ele>107.0</ele><time>2026-04-25T07:25:34.716Z</time></trkpt><trkpt lat="46.065465" lon="13.2109067"><ele>106.50000000000001</ele><time>2026-04-25T07:25:36.716Z</time></trkpt><trkpt lat="46.0653817" lon="13.2109"><ele>106.0</ele><time>2026-04-25T07:25:39.717Z</time></trkpt><trkpt lat="46.0653217" lon="13.210935"><ele>106.0</ele><time>2026-04-25T07:25:41.717Z</time></trkpt><trkpt lat="46.065225" lon="13.210995"><ele>106.0</ele><time>2026-04-25T07:25:43.717Z</time></trkpt><trkpt lat="46.0651167" lon="13.21108"><ele>106.0</ele><time>2026-04-25T07:25:45.717Z</time></trkpt><trkpt lat="46.06501" lon="13.2111767"><ele>106.0</ele><time>2026-04-25T07:25:47.716Z</time></trkpt><trkpt lat="46.06495" lon="13.21122"><ele>106.0</ele><time>2026-04-25T07:25:48.717Z</time></trkpt><trkpt lat="46.0648817" lon="13.2112617"><ele>106.0</ele><time>2026-04-25T07:25:49.717Z</time></trkpt><trkpt lat="46.064815" lon="13.2113"><ele>106.0</ele><time>2026-04-25T07:25:50.717Z</time></trkpt><trkpt lat="46.0647533" lon="13.2113283"><ele>106.0</ele><time>2026-04-25T07:25:51.717Z</time></trkpt><trkpt lat="46.0646633" lon="13.211395"><ele>106.0</ele><time>2026-04-25T07:25:53.717Z</time></trkpt><trkpt lat="46.0645533" lon="13.21144"><ele>106.0</ele><time>2026-04-25T07:25:55.717Z</time></trkpt><trkpt lat="46.0644433" lon="13.211505"><ele>106.0</ele><time>2026-04-25T07:25:57.717Z</time></trkpt><trkpt lat="46.0643417" lon="13.2115733"><ele>106.0</ele><time>2026-04-25T07:25:59.717Z</time></trkpt><trkpt lat="46.06427" lon="13.211615"><ele>106.0</ele><time>2026-04-25T07:26:01.716Z</time></trkpt><trkpt lat="46.0641883" lon="13.21158"><ele>106.0</ele><time>2026-04-25T07:26:04.716Z</time></trkpt><trkpt lat="46.0641283" lon="13.211435"><ele>106.0</ele><time>2026-04-25T07:26:06.717Z</time></trkpt><trkpt lat="46.0640933" lon="13.211335"><ele>106.19999999999999</ele><time>2026-04-25T07:26:07.717Z</time></trkpt><trkpt lat="46.0640533" lon="13.2112217"><ele>106.39999999999999</ele><time>2026-04-25T07:26:08.716Z</time></trkpt><trkpt lat="46.0640083" lon="13.2110967"><ele>106.6</ele><time>2026-04-25T07:26:09.717Z</time></trkpt><trkpt lat="46.0639583" lon="13.2109567"><ele>106.8</ele><time>2026-04-25T07:26:10.716Z</time></trkpt><trkpt lat="46.063905" lon="13.2108033"><ele>107.0</ele><time>2026-04-25T07:26:11.717Z</time></trkpt><trkpt lat="46.06385" lon="13.2106417"><ele>107.75</ele><time>2026-04-25T07:26:12.717Z</time></trkpt><trkpt lat="46.0637917" lon="13.2104733"><ele>108.5</ele><time>2026-04-25T07:26:13.717Z</time></trkpt><trkpt lat="46.06373" lon="13.2102983"><ele>109.25</ele><time>2026-04-25T07:26:14.716Z</time></trkpt><trkpt lat="46.06367" lon="13.2101133"><ele>110.0</ele><time>2026-04-25T07:26:15.717Z</time></trkpt><trkpt lat="46.0636067" lon="13.20992"><ele>110.0</ele><time>2026-04-25T07:26:16.716Z</time></trkpt><trkpt lat="46.06354" lon="13.2097217"><ele>110.0</ele><time>2026-04-25T07:26:17.716Z</time></trkpt><trkpt lat="46.0634767" lon="13.2095183"><ele>110.0</ele><time>2026-04-25T07:26:18.717Z</time></trkpt><trkpt lat="46.0634167" lon="13.2093133"><ele>110.0</ele><time>2026-04-25T07:26:19.717Z</time></trkpt><trkpt lat="46.0633633" lon="13.20912"><ele>110.0</ele><time>2026-04-25T07:26:20.717Z</time></trkpt><trkpt lat="46.0633233" lon="13.208955"><ele>110.0</ele><time>2026-04-25T07:26:21.717Z</time></trkpt><trkpt lat="46.0632983" lon="13.20881"><ele>110.0</ele><time>2026-04-25T07:26:22.717Z</time></trkpt><trkpt lat="46.06328" lon="13.208665"><ele>109.99999999999999</ele><time>2026-04-25T07:26:23.716Z</time></trkpt><trkpt lat="46.0632867" lon="13.2085283"><ele>110.0</ele><time>2026-04-25T07:26:24.716Z</time></trkpt><trkpt lat="46.06328" lon="13.2083983"><ele>110.0</ele><time>2026-04-25T07:26:25.717Z</time></trkpt><trkpt lat="46.0632517" lon="13.2082933"><ele>110.0</ele><time>2026-04-25T07:26:26.717Z</time></trkpt><trkpt lat="46.0632033" lon="13.20821"><ele>109.99999999999999</ele><time>2026-04-25T07:26:27.716Z</time></trkpt><trkpt lat="46.0631333" lon="13.208155"><ele>110.0</ele><time>2026-04-25T07:26:28.717Z</time></trkpt><trkpt lat="46.0630533" lon="13.2081583"><ele>110.0</ele><time>2026-04-25T07:26:29.717Z</time></trkpt><trkpt lat="46.0629667" lon="13.2082217"><ele>110.0</ele><time>2026-04-25T07:26:30.717Z</time></trkpt><trkpt lat="46.0628767" lon="13.2083117"><ele>110.0</ele><time>2026-04-25T07:26:31.717Z</time></trkpt><trkpt lat="46.0627867" lon="13.2083917"><ele>110.0</ele><time>2026-04-25T07:26:32.717Z</time></trkpt><trkpt lat="46.0626933" lon="13.2084617"><ele>110.0</ele><time>2026-04-25T07:26:33.716Z</time></trkpt><trkpt lat="46.0625933" lon="13.208535"><ele>110.0</ele><time>2026-04-25T07:26:34.716Z</time></trkpt><trkpt lat="46.0624917" lon="13.2086117"><ele>110.0</ele><time>2026-04-25T07:26:35.717Z</time></trkpt><trkpt lat="46.0623833" lon="13.2086817"><ele>110.0</ele><time>2026-04-25T07:26:36.716Z</time></trkpt><trkpt lat="46.062265" lon="13.20876"><ele>110.0</ele><time>2026-04-25T07:26:37.717Z</time></trkpt><trkpt lat="46.0621533" lon="13.2088317"><ele>109.75</ele><time>2026-04-25T07:26:38.716Z</time></trkpt><trkpt lat="46.0620417" lon="13.2089017"><ele>109.5</ele><time>2026-04-25T07:26:39.716Z</time></trkpt><trkpt lat="46.0619333" lon="13.20897"><ele>109.25</ele><time>2026-04-25T07:26:40.717Z</time></trkpt><trkpt lat="46.0618267" lon="13.2090433"><ele>109.0</ele><time>2026-04-25T07:26:41.716Z</time></trkpt><trkpt lat="46.0617283" lon="13.209105"><ele>108.4</ele><time>2026-04-25T07:26:42.716Z</time></trkpt><trkpt lat="46.061635" lon="13.2091633"><ele>107.80000000000001</ele><time>2026-04-25T07:26:43.716Z</time></trkpt><trkpt lat="46.0615433" lon="13.2092333"><ele>107.19999999999999</ele><time>2026-04-25T07:26:44.717Z</time></trkpt><trkpt lat="46.0614517" lon="13.2093067"><ele>106.6</ele><time>2026-04-25T07:26:45.717Z</time></trkpt><trkpt lat="46.0613567" lon="13.2093917"><ele>106.0</ele><time>2026-04-25T07:26:46.717Z</time></trkpt><trkpt lat="46.0612517" lon="13.209485"><ele>106.0</ele><time>2026-04-25T07:26:47.717Z</time></trkpt><trkpt lat="46.0611417" lon="13.209585"><ele>106.0</ele><time>2026-04-25T07:26:48.717Z</time></trkpt><trkpt lat="46.0610367" lon="13.2096983"><ele>106.0</ele><time>2026-04-25T07:26:49.716Z</time></trkpt><trkpt lat="46.0609317" lon="13.2098217"><ele>106.0</ele><time>2026-04-25T07:26:50.716Z</time></trkpt><trkpt lat="46.0608217" lon="13.2099633"><ele>105.5</ele><time>2026-04-25T07:26:51.716Z</time></trkpt><trkpt lat="46.0607167" lon="13.210105"><ele>105.0</ele><time>2026-04-25T07:26:52.716Z</time></trkpt><trkpt lat="46.0606083" lon="13.2102467"><ele>104.5</ele><time>2026-04-25T07:26:53.717Z</time></trkpt><trkpt lat="46.060495" lon="13.2103883"><ele>104.0</ele><time>2026-04-25T07:26:54.717Z</time></trkpt><trkpt lat="46.0603833" lon="13.2105333"><ele>104.66666666666666</ele><time>2026-04-25T07:26:55.716Z</time></trkpt><trkpt lat="46.0602683" lon="13.210675"><ele>105.33333333333334</ele><time>2026-04-25T07:26:56.717Z</time></trkpt><trkpt lat="46.060145" lon="13.21081"><ele>106.0</ele><time>2026-04-25T07:26:57.717Z</time></trkpt><trkpt lat="46.060015" lon="13.21094"><ele>105.66666666666667</ele><time>2026-04-25T07:26:58.717Z</time></trkpt><trkpt lat="46.059885" lon="13.2110617"><ele>105.33333333333334</ele><time>2026-04-25T07:26:59.716Z</time></trkpt><trkpt lat="46.05975" lon="13.2111883"><ele>105.0</ele><time>2026-04-25T07:27:00.717Z</time></trkpt><trkpt lat="46.059615" lon="13.2113017"><ele>105.0</ele><time>2026-04-25T07:27:01.717Z</time></trkpt><trkpt lat="46.05947" lon="13.21141"><ele>105.0</ele><time>2026-04-25T07:27:02.717Z</time></trkpt><trkpt lat="46.05932" lon="13.21151"><ele>105.0</ele><time>2026-04-25T07:27:03.717Z</time></trkpt><trkpt lat="46.0591717" lon="13.2115983"><ele>104.33333333333334</ele><time>2026-04-25T07:27:04.716Z</time></trkpt><trkpt lat="46.05903" lon="13.211685"><ele>103.66666666666667</ele><time>2026-04-25T07:27:05.717Z</time></trkpt><trkpt lat="46.05888" lon="13.2117567"><ele>103.0</ele><time>2026-04-25T07:27:06.716Z</time></trkpt><trkpt lat="46.0587283" lon="13.211825"><ele>103.0</ele><time>2026-04-25T07:27:07.717Z</time></trkpt><trkpt lat="46.0585817" lon="13.2118933"><ele>103.0</ele><time>2026-04-25T07:27:08.716Z</time></trkpt><trkpt lat="46.0584317" lon="13.2119717"><ele>103.0</ele><time>2026-04-25T07:27:09.717Z</time></trkpt><trkpt lat="46.0582833" lon="13.2120483"><ele>103.66666666666667</ele><time>2026-04-25T07:27:10.716Z</time></trkpt><trkpt lat="46.05814" lon="13.2121367"><ele>104.33333333333334</ele><time>2026-04-25T07:27:11.717Z</time></trkpt><trkpt lat="46.0580017" lon="13.2122233"><ele>105.0</ele><time>2026-04-25T07:27:12.716Z</time></trkpt><trkpt lat="46.057865" lon="13.2123167"><ele>104.75</ele><time>2026-04-25T07:27:13.717Z</time></trkpt><trkpt lat="46.0577317" lon="13.21241"><ele>104.5</ele><time>2026-04-25T07:27:14.716Z</time></trkpt><trkpt lat="46.0576" lon="13.2124983"><ele>104.25</ele><time>2026-04-25T07:27:15.717Z</time></trkpt><trkpt lat="46.057465" lon="13.2125833"><ele>104.0</ele><time>2026-04-25T07:27:16.716Z</time></trkpt><trkpt lat="46.05733" lon="13.2126667"><ele>104.0</ele><time>2026-04-25T07:27:17.716Z</time></trkpt><trkpt lat="46.057195" lon="13.2127617"><ele>104.0</ele><time>2026-04-25T07:27:18.717Z</time></trkpt><trkpt lat="46.0570617" lon="13.2128433"><ele>104.0</ele><time>2026-04-25T07:27:19.717Z</time></trkpt><trkpt lat="46.05693" lon="13.2129317"><ele>104.0</ele><time>2026-04-25T07:27:20.717Z</time></trkpt><trkpt lat="46.056795" lon="13.21302"><ele>104.0</ele><time>2026-04-25T07:27:21.717Z</time></trkpt><trkpt lat="46.05666" lon="13.21311"><ele>104.0</ele><time>2026-04-25T07:27:22.716Z</time></trkpt><trkpt lat="46.0565233" lon="13.2132"><ele>104.0</ele><time>2026-04-25T07:27:23.717Z</time></trkpt><trkpt lat="46.05638" lon="13.2132833"><ele>104.25</ele><time>2026-04-25T07:27:24.717Z</time></trkpt><trkpt lat="46.0562517" lon="13.21337"><ele>104.5</ele><time>2026-04-25T07:27:25.717Z</time></trkpt><trkpt lat="46.0561167" lon="13.2134517"><ele>104.75</ele><time>2026-04-25T07:27:26.716Z</time></trkpt><trkpt lat="46.0559967" lon="13.2135183"><ele>105.0</ele><time>2026-04-25T07:27:27.717Z</time></trkpt><trkpt lat="46.0558817" lon="13.2135867"><ele>105.2</ele><time>2026-04-25T07:27:28.717Z</time></trkpt><trkpt lat="46.0557733" lon="13.2136583"><ele>105.4</ele><time>2026-04-25T07:27:29.717Z</time></trkpt><trkpt lat="46.0556683" lon="13.213725"><ele>105.6</ele><time>2026-04-25T07:27:30.717Z</time></trkpt><trkpt lat="46.05557" lon="13.213785"><ele>105.8</ele><time>2026-04-25T07:27:31.717Z</time></trkpt><trkpt lat="46.0554717" lon="13.2138467"><ele>106.0</ele><time>2026-04-25T07:27:32.716Z</time></trkpt><trkpt lat="46.0553717" lon="13.2139067"><ele>106.0</ele><time>2026-04-25T07:27:33.717Z</time></trkpt><trkpt lat="46.05527" lon="13.2139633"><ele>106.0</ele><time>2026-04-25T07:27:34.716Z</time></trkpt><trkpt lat="46.0551767" lon="13.214025"><ele>106.0</ele><time>2026-04-25T07:27:35.717Z</time></trkpt><trkpt lat="46.0550933" lon="13.2140833"><ele>106.0</ele><time>2026-04-25T07:27:36.716Z</time></trkpt><trkpt lat="46.0550117" lon="13.21414"><ele>106.0</ele><time>2026-04-25T07:27:37.717Z</time></trkpt><trkpt lat="46.0549417" lon="13.2141933"><ele>106.16666666666667</ele><time>2026-04-25T07:27:38.717Z</time></trkpt><trkpt lat="46.0548767" lon="13.2142367"><ele>106.33333333333334</ele><time>2026-04-25T07:27:39.717Z</time></trkpt><trkpt lat="46.054785" lon="13.2143033"><ele>106.5</ele><time>2026-04-25T07:27:41.717Z</time></trkpt><trkpt lat="46.0546983" lon="13.2143583"><ele>106.66666666666666</ele><time>2026-04-25T07:27:43.716Z</time></trkpt><trkpt lat="46.0546083" lon="13.2144117"><ele>106.83333333333333</ele><time>2026-04-25T07:27:45.717Z</time></trkpt><trkpt lat="46.0545417" lon="13.2144483"><ele>107.0</ele><time>2026-04-25T07:27:47.716Z</time></trkpt><trkpt lat="46.0544767" lon="13.2144667"><ele>106.99999999999999</ele><time>2026-04-25T07:27:51.716Z</time></trkpt><trkpt lat="46.0543917" lon="13.2144833"><ele>107.0</ele><time>2026-04-25T07:27:53.717Z</time></trkpt><trkpt lat="46.0542917" lon="13.2145267"><ele>107.0</ele><time>2026-04-25T07:27:55.716Z</time></trkpt><trkpt lat="46.05424" lon="13.2145883"><ele>107.0</ele><time>2026-04-25T07:27:56.717Z</time></trkpt><trkpt lat="46.0541783" lon="13.2146533"><ele>106.99999999999999</ele><time>2026-04-25T07:27:57.717Z</time></trkpt><trkpt lat="46.054105" lon="13.2147083"><ele>107.0</ele><time>2026-04-25T07:27:58.717Z</time></trkpt><trkpt lat="46.05403" lon="13.2147583"><ele>106.66666666666666</ele><time>2026-04-25T07:27:59.716Z</time></trkpt><trkpt lat="46.0539517" lon="13.2148067"><ele>106.33333333333333</ele><time>2026-04-25T07:28:00.717Z</time></trkpt><trkpt lat="46.0538667" lon="13.2148467"><ele>106.0</ele><time>2026-04-25T07:28:01.717Z</time></trkpt><trkpt lat="46.0537783" lon="13.214875"><ele>105.66666666666666</ele><time>2026-04-25T07:28:02.717Z</time></trkpt><trkpt lat="46.0536833" lon="13.21489"><ele>105.33333333333333</ele><time>2026-04-25T07:28:03.717Z</time></trkpt><trkpt lat="46.0535967" lon="13.2148983"><ele>105.0</ele><time>2026-04-25T07:28:04.716Z</time></trkpt><trkpt lat="46.0535117" lon="13.2149083"><ele>105.0</ele><time>2026-04-25T07:28:05.717Z</time></trkpt><trkpt lat="46.0534283" lon="13.2148967"><ele>105.0</ele><time>2026-04-25T07:28:06.716Z</time></trkpt><trkpt lat="46.0533617" lon="13.21488"><ele>105.0</ele><time>2026-04-25T07:28:07.716Z</time></trkpt><trkpt lat="46.0532483" lon="13.2148717"><ele>105.0</ele><time>2026-04-25T07:28:09.717Z</time></trkpt><trkpt lat="46.0531333" lon="13.214915"><ele>105.0</ele><time>2026-04-25T07:28:11.717Z</time></trkpt><trkpt lat="46.0530667" lon="13.2149283"><ele>104.6</ele><time>2026-04-25T07:28:12.717Z</time></trkpt><trkpt lat="46.0529483" lon="13.2149167"><ele>104.2</ele><time>2026-04-25T07:28:14.717Z</time></trkpt><trkpt lat="46.0528567" lon="13.2148117"><ele>103.80000000000001</ele><time>2026-04-25T07:28:16.717Z</time></trkpt><trkpt lat="46.0528217" lon="13.2147283"><ele>103.4</ele><time>2026-04-25T07:28:17.717Z</time></trkpt><trkpt lat="46.0527617" lon="13.2145933"><ele>103.0</ele><time>2026-04-25T07:28:19.716Z</time></trkpt><trkpt lat="46.052675" lon="13.2145733"><ele>102.80000000000001</ele><time>2026-04-25T07:28:21.717Z</time></trkpt><trkpt lat="46.0525433" lon="13.2146667"><ele>102.6</ele><time>2026-04-25T07:28:23.717Z</time></trkpt><trkpt lat="46.052455" lon="13.2147267"><ele>102.4</ele><time>2026-04-25T07:28:24.717Z</time></trkpt><trkpt lat="46.0523667" lon="13.2147967"><ele>102.19999999999999</ele><time>2026-04-25T07:28:25.717Z</time></trkpt><trkpt lat="46.0522767" lon="13.214865"><ele>102.0</ele><time>2026-04-25T07:28:26.716Z</time></trkpt><trkpt lat="46.0521783" lon="13.2149333"><ele>102.0</ele><time>2026-04-25T07:28:27.716Z</time></trkpt><trkpt lat="46.052075" lon="13.2150033"><ele>102.0</ele><time>2026-04-25T07:28:28.716Z</time></trkpt><trkpt lat="46.0519667" lon="13.2150717"><ele>102.0</ele><time>2026-04-25T07:28:29.716Z</time></trkpt><trkpt lat="46.0518533" lon="13.215145"><ele>102.0</ele><time>2026-04-25T07:28:30.717Z</time></trkpt><trkpt lat="46.0517383" lon="13.2152183"><ele>101.5</ele><time>2026-04-25T07:28:31.717Z</time></trkpt><trkpt lat="46.05162" lon="13.2152917"><ele>101.0</ele><time>2026-04-25T07:28:32.717Z</time></trkpt><trkpt lat="46.0514917" lon="13.2153767"><ele>100.5</ele><time>2026-04-25T07:28:33.716Z</time></trkpt><trkpt lat="46.0513733" lon="13.2154617"><ele>100.0</ele><time>2026-04-25T07:28:34.717Z</time></trkpt><trkpt lat="46.05125" lon="13.2155383"><ele>100.0</ele><time>2026-04-25T07:28:35.716Z</time></trkpt><trkpt lat="46.051125" lon="13.2156167"><ele>100.0</ele><time>2026-04-25T07:28:36.717Z</time></trkpt><trkpt lat="46.051" lon="13.215685"><ele>100.0</ele><time>2026-04-25T07:28:37.716Z</time></trkpt><trkpt lat="46.0508833" lon="13.2157633"><ele>100.0</ele><time>2026-04-25T07:28:38.717Z</time></trkpt><trkpt lat="46.0507683" lon="13.21583"><ele>99.00000000000001</ele><time>2026-04-25T07:28:39.717Z</time></trkpt><trkpt lat="46.0506617" lon="13.21589"><ele>98.0</ele><time>2026-04-25T07:28:40.716Z</time></trkpt><trkpt lat="46.0505717" lon="13.2159333"><ele>97.0</ele><time>2026-04-25T07:28:41.717Z</time></trkpt><trkpt lat="46.0504983" lon="13.2159533"><ele>96.0</ele><time>2026-04-25T07:28:42.717Z</time></trkpt><trkpt lat="46.0504167" lon="13.2159833"><ele>95.0</ele><time>2026-04-25T07:28:44.716Z</time></trkpt><trkpt lat="46.0503467" lon="13.21601"><ele>94.0</ele><time>2026-04-25T07:28:46.716Z</time></trkpt><trkpt lat="46.0502617" lon="13.2160733"><ele>94.0</ele><time>2026-04-25T07:28:48.717Z</time></trkpt><trkpt lat="46.050235" lon="13.2161883"><ele>94.0</ele><time>2026-04-25T07:28:50.716Z</time></trkpt><trkpt lat="46.0502683" lon="13.2163717"><ele>94.0</ele><time>2026-04-25T07:28:52.717Z</time></trkpt><trkpt lat="46.0503133" lon="13.2165133"><ele>94.0</ele><time>2026-04-25T07:28:53.717Z</time></trkpt><trkpt lat="46.0503567" lon="13.2166583"><ele>94.0</ele><time>2026-04-25T07:28:54.717Z</time></trkpt><trkpt lat="46.0503967" lon="13.2167967"><ele>94.4</ele><time>2026-04-25T07:28:55.717Z</time></trkpt><trkpt lat="46.05044" lon="13.2169267"><ele>94.80000000000001</ele><time>2026-04-25T07:28:56.717Z</time></trkpt><trkpt lat="46.0504767" lon="13.21705"><ele>95.19999999999999</ele><time>2026-04-25T07:28:57.717Z</time></trkpt><trkpt lat="46.050515" lon="13.2171717"><ele>95.6</ele><time>2026-04-25T07:28:58.717Z</time></trkpt><trkpt lat="46.0505517" lon="13.2172917"><ele>96.0</ele><time>2026-04-25T07:28:59.716Z</time></trkpt><trkpt lat="46.0505917" lon="13.21741"><ele>96.5</ele><time>2026-04-25T07:29:00.716Z</time></trkpt><trkpt lat="46.050625" lon="13.217525"><ele>97.0</ele><time>2026-04-25T07:29:01.717Z</time></trkpt><trkpt lat="46.05066" lon="13.2176383"><ele>97.5</ele><time>2026-04-25T07:29:02.717Z</time></trkpt><trkpt lat="46.0506933" lon="13.217755"><ele>98.0</ele><time>2026-04-25T07:29:03.716Z</time></trkpt><trkpt lat="46.05073" lon="13.2178733"><ele>98.5</ele><time>2026-04-25T07:29:04.717Z</time></trkpt><trkpt lat="46.050765" lon="13.217995"><ele>99.0</ele><time>2026-04-25T07:29:05.717Z</time></trkpt><trkpt lat="46.050795" lon="13.218115"><ele>99.6</ele><time>2026-04-25T07:29:06.717Z</time></trkpt><trkpt lat="46.0508267" lon="13.2182383"><ele>100.2</ele><time>2026-04-25T07:29:07.717Z</time></trkpt><trkpt lat="46.0508633" lon="13.2183583"><ele>100.8</ele><time>2026-04-25T07:29:08.717Z</time></trkpt><trkpt lat="46.0509017" lon="13.21848"><ele>101.39999999999999</ele><time>2026-04-25T07:29:09.717Z</time></trkpt><trkpt lat="46.0509417" lon="13.2186"><ele>102.0</ele><time>2026-04-25T07:29:10.716Z</time></trkpt><trkpt lat="46.0509783" lon="13.218735"><ele>102.0</ele><time>2026-04-25T07:29:11.716Z</time></trkpt><trkpt lat="46.0510217" lon="13.218875"><ele>102.0</ele><time>2026-04-25T07:29:12.717Z</time></trkpt><trkpt lat="46.05107" lon="13.2190283"><ele>102.0</ele><time>2026-04-25T07:29:13.717Z</time></trkpt><trkpt lat="46.0511217" lon="13.21918"><ele>102.0</ele><time>2026-04-25T07:29:14.717Z</time></trkpt><trkpt lat="46.0511733" lon="13.2193367"><ele>101.5</ele><time>2026-04-25T07:29:15.716Z</time></trkpt><trkpt lat="46.0512267" lon="13.2195067"><ele>101.0</ele><time>2026-04-25T07:29:16.717Z</time></trkpt><trkpt lat="46.0512767" lon="13.2196883"><ele>100.5</ele><time>2026-04-25T07:29:17.717Z</time></trkpt><trkpt lat="46.0513333" lon="13.21986"><ele>100.0</ele><time>2026-04-25T07:29:18.717Z</time></trkpt><trkpt lat="46.0513867" lon="13.22003"><ele>100.0</ele><time>2026-04-25T07:29:19.716Z</time></trkpt><trkpt lat="46.051435" lon="13.220195"><ele>100.0</ele><time>2026-04-25T07:29:20.717Z</time></trkpt><trkpt lat="46.0514767" lon="13.2203483"><ele>100.0</ele><time>2026-04-25T07:29:21.716Z</time></trkpt><trkpt lat="46.0515233" lon="13.2204933"><ele>100.0</ele><time>2026-04-25T07:29:22.716Z</time></trkpt><trkpt lat="46.0515567" lon="13.2206217"><ele>100.0</ele><time>2026-04-25T07:29:23.716Z</time></trkpt><trkpt lat="46.05159" lon="13.2207433"><ele>100.00000000000001</ele><time>2026-04-25T07:29:24.717Z</time></trkpt><trkpt lat="46.0516183" lon="13.2208517"><ele>100.0</ele><time>2026-04-25T07:29:25.717Z</time></trkpt><trkpt lat="46.0516483" lon="13.2209667"><ele>100.0</ele><time>2026-04-25T07:29:26.717Z</time></trkpt><trkpt lat="46.0516717" lon="13.2210883"><ele>100.0</ele><time>2026-04-25T07:29:27.717Z</time></trkpt><trkpt lat="46.0517017" lon="13.2212033"><ele>100.00000000000001</ele><time>2026-04-25T07:29:28.716Z</time></trkpt><trkpt lat="46.0517217" lon="13.2212983"><ele>100.0</ele><time>2026-04-25T07:29:29.717Z</time></trkpt><trkpt lat="46.0517233" lon="13.221415"><ele>100.2</ele><time>2026-04-25T07:29:31.717Z</time></trkpt><trkpt lat="46.0516783" lon="13.2214867"><ele>100.4</ele><time>2026-04-25T07:29:33.717Z</time></trkpt><trkpt lat="46.0515633" lon="13.221555"><ele>100.6</ele><time>2026-04-25T07:29:35.717Z</time></trkpt><trkpt lat="46.0514783" lon="13.2215983"><ele>100.8</ele><time>2026-04-25T07:29:36.717Z</time></trkpt><trkpt lat="46.051375" lon="13.2216533"><ele>101.0</ele><time>2026-04-25T07:29:37.716Z</time></trkpt><trkpt lat="46.05125" lon="13.221715"><ele>101.0</ele><time>2026-04-25T07:29:38.717Z</time></trkpt><trkpt lat="46.0511133" lon="13.2217883"><ele>101.0</ele><time>2026-04-25T07:29:39.717Z</time></trkpt><trkpt lat="46.0509717" lon="13.22186"><ele>101.0</ele><time>2026-04-25T07:29:40.716Z</time></trkpt><trkpt lat="46.0508233" lon="13.2219367"><ele>100.66666666666666</ele><time>2026-04-25T07:29:41.717Z</time></trkpt><trkpt lat="46.0506767" lon="13.2220083"><ele>100.33333333333334</ele><time>2026-04-25T07:29:42.717Z</time></trkpt><trkpt lat="46.0505333" lon="13.2221067"><ele>100.0</ele><time>2026-04-25T07:29:43.716Z</time></trkpt><trkpt lat="46.0503817" lon="13.2221783"><ele>100.0</ele><time>2026-04-25T07:29:44.716Z</time></trkpt><trkpt lat="46.0502417" lon="13.22225"><ele>100.0</ele><time>2026-04-25T07:29:45.717Z</time></trkpt><trkpt lat="46.0501" lon="13.22233"><ele>100.0</ele><time>2026-04-25T07:29:46.717Z</time></trkpt><trkpt lat="46.04996" lon="13.22241"><ele>100.33333333333334</ele><time>2026-04-25T07:29:47.716Z</time></trkpt><trkpt lat="46.0498167" lon="13.2224933"><ele>100.66666666666666</ele><time>2026-04-25T07:29:48.717Z</time></trkpt><trkpt lat="46.0496717" lon="13.222575"><ele>101.0</ele><time>2026-04-25T07:29:49.717Z</time></trkpt><trkpt lat="46.0495333" lon="13.2226367"><ele>101.0</ele><time>2026-04-25T07:29:50.716Z</time></trkpt><trkpt lat="46.049415" lon="13.222695"><ele>101.0</ele><time>2026-04-25T07:29:51.717Z</time></trkpt><trkpt lat="46.0492967" lon="13.22274"><ele>101.0</ele><time>2026-04-25T07:29:52.717Z</time></trkpt><trkpt lat="46.0491867" lon="13.2227517"><ele>101.0</ele><time>2026-04-25T07:29:53.717Z</time></trkpt><trkpt lat="46.04909" lon="13.22274"><ele>100.19999999999999</ele><time>2026-04-25T07:29:54.717Z</time></trkpt><trkpt lat="46.0489983" lon="13.2227483"><ele>99.39999999999999</ele><time>2026-04-25T07:29:55.716Z</time></trkpt><trkpt lat="46.04892" lon="13.2228083"><ele>98.6</ele><time>2026-04-25T07:29:56.716Z</time></trkpt><trkpt lat="46.048845" lon="13.2229"><ele>97.8</ele><time>2026-04-25T07:29:57.716Z</time></trkpt><trkpt lat="46.0487633" lon="13.2229933"><ele>97.0</ele><time>2026-04-25T07:29:58.717Z</time></trkpt><trkpt lat="46.0486767" lon="13.2230733"><ele>97.00000000000001</ele><time>2026-04-25T07:29:59.716Z</time></trkpt><trkpt lat="46.0485933" lon="13.2231267"><ele>97.0</ele><time>2026-04-25T07:30:00.717Z</time></trkpt><trkpt lat="46.0485" lon="13.223155"><ele>97.0</ele><time>2026-04-25T07:30:01.717Z</time></trkpt><trkpt lat="46.0484117" lon="13.2231517"><ele>97.0</ele><time>2026-04-25T07:30:02.717Z</time></trkpt><trkpt lat="46.048335" lon="13.2231183"><ele>97.00000000000001</ele><time>2026-04-25T07:30:03.717Z</time></trkpt><trkpt lat="46.048265" lon="13.2230917"><ele>97.0</ele><time>2026-04-25T07:30:04.717Z</time></trkpt><trkpt lat="46.0481983" lon="13.223105"><ele>97.39999999999999</ele><time>2026-04-25T07:30:05.716Z</time></trkpt><trkpt lat="46.048125" lon="13.2232367"><ele>97.8</ele><time>2026-04-25T07:30:07.717Z</time></trkpt><trkpt lat="46.048045" lon="13.2233683"><ele>98.2</ele><time>2026-04-25T07:30:09.716Z</time></trkpt><trkpt lat="46.0479783" lon="13.2234167"><ele>98.6</ele><time>2026-04-25T07:30:10.716Z</time></trkpt><trkpt lat="46.0478933" lon="13.223465"><ele>99.0</ele><time>2026-04-25T07:30:11.717Z</time></trkpt><trkpt lat="46.0477933" lon="13.2235167"><ele>99.0</ele><time>2026-04-25T07:30:12.717Z</time></trkpt><trkpt lat="46.0476867" lon="13.2235717"><ele>99.0</ele><time>2026-04-25T07:30:13.717Z</time></trkpt><trkpt lat="46.0475717" lon="13.2236267"><ele>99.0</ele><time>2026-04-25T07:30:14.717Z</time></trkpt><trkpt lat="46.0474483" lon="13.2236867"><ele>99.0</ele><time>2026-04-25T07:30:15.717Z</time></trkpt><trkpt lat="46.04732" lon="13.2237533"><ele>99.0</ele><time>2026-04-25T07:30:16.717Z</time></trkpt><trkpt lat="46.0471917" lon="13.223825"><ele>99.0</ele><time>2026-04-25T07:30:17.717Z</time></trkpt><trkpt lat="46.04706" lon="13.2238967"><ele>99.0</ele><time>2026-04-25T07:30:18.716Z</time></trkpt><trkpt lat="46.0469283" lon="13.2239633"><ele>99.0</ele><time>2026-04-25T07:30:19.717Z</time></trkpt><trkpt lat="46.0468033" lon="13.224035"><ele>98.80000000000001</ele><time>2026-04-25T07:30:20.717Z</time></trkpt><trkpt lat="46.046675" lon="13.2241017"><ele>98.60000000000001</ele><time>2026-04-25T07:30:21.717Z</time></trkpt><trkpt lat="46.0465633" lon="13.2241617"><ele>98.4</ele><time>2026-04-25T07:30:22.717Z</time></trkpt><trkpt lat="46.046465" lon="13.2242033"><ele>98.2</ele><time>2026-04-25T07:30:23.716Z</time></trkpt><trkpt lat="46.0463883" lon="13.2242417"><ele>98.0</ele><time>2026-04-25T07:30:24.717Z</time></trkpt><trkpt lat="46.0462817" lon="13.224295"><ele>97.99999999999999</ele><time>2026-04-25T07:30:26.717Z</time></trkpt><trkpt lat="46.0462167" lon="13.224295"><ele>98.0</ele><time>2026-04-25T07:30:28.716Z</time></trkpt><trkpt lat="46.0461467" lon="13.2242167"><ele>98.0</ele><time>2026-04-25T07:30:30.716Z</time></trkpt><trkpt lat="46.0460933" lon="13.2241617"><ele>98.0</ele><time>2026-04-25T07:30:31.717Z</time></trkpt><trkpt lat="46.0460267" lon="13.2240933"><ele>97.99999999999999</ele><time>2026-04-25T07:30:32.717Z</time></trkpt><trkpt lat="46.0459433" lon="13.224025"><ele>98.0</ele><time>2026-04-25T07:30:33.717Z</time></trkpt><trkpt lat="46.0458467" lon="13.223965"><ele>98.0</ele><time>2026-04-25T07:30:34.717Z</time></trkpt><trkpt lat="46.04574" lon="13.2239333"><ele>98.0</ele><time>2026-04-25T07:30:35.717Z</time></trkpt><trkpt lat="46.0456283" lon="13.22394"><ele>98.0</ele><time>2026-04-25T07:30:36.717Z</time></trkpt><trkpt lat="46.04551" lon="13.223975"><ele>98.0</ele><time>2026-04-25T07:30:37.716Z</time></trkpt><trkpt lat="46.04538" lon="13.2240233"><ele>98.0</ele><time>2026-04-25T07:30:38.717Z</time></trkpt><trkpt lat="46.0452533" lon="13.2240783"><ele>98.0</ele><time>2026-04-25T07:30:39.717Z</time></trkpt><trkpt lat="46.0451233" lon="13.2241367"><ele>98.0</ele><time>2026-04-25T07:30:40.716Z</time></trkpt><trkpt lat="46.0450083" lon="13.2241817"><ele>98.0</ele><time>2026-04-25T07:30:41.716Z</time></trkpt><trkpt lat="46.0448917" lon="13.2242383"><ele>97.80000000000001</ele><time>2026-04-25T07:30:42.716Z</time></trkpt><trkpt lat="46.044785" lon="13.224285"><ele>97.6</ele><time>2026-04-25T07:30:43.716Z</time></trkpt><trkpt lat="46.0446883" lon="13.22433"><ele>97.4</ele><time>2026-04-25T07:30:44.716Z</time></trkpt><trkpt lat="46.0445983" lon="13.22437"><ele>97.19999999999999</ele><time>2026-04-25T07:30:45.717Z</time></trkpt><trkpt lat="46.04452" lon="13.2244033"><ele>97.0</ele><time>2026-04-25T07:30:46.717Z</time></trkpt><trkpt lat="46.0444567" lon="13.224415"><ele>97.0</ele><time>2026-04-25T07:30:47.717Z</time></trkpt><trkpt lat="46.0443817" lon="13.2243967"><ele>97.0</ele><time>2026-04-25T07:30:49.717Z</time></trkpt><trkpt lat="46.0443183" lon="13.2244083"><ele>97.0</ele><time>2026-04-25T07:30:51.717Z</time></trkpt><trkpt lat="46.0442" lon="13.22449"><ele>97.0</ele><time>2026-04-25T07:30:53.717Z</time></trkpt><trkpt lat="46.0441217" lon="13.2245483"><ele>97.0</ele><time>2026-04-25T07:30:54.716Z</time></trkpt><trkpt lat="46.04403" lon="13.2246033"><ele>96.75</ele><time>2026-04-25T07:30:55.717Z</time></trkpt><trkpt lat="46.04393" lon="13.2246733"><ele>96.5</ele><time>2026-04-25T07:30:56.716Z</time></trkpt><trkpt lat="46.0438217" lon="13.2247467"><ele>96.25</ele><time>2026-04-25T07:30:57.716Z</time></trkpt><trkpt lat="46.0437033" lon="13.22483"><ele>96.0</ele><time>2026-04-25T07:30:58.716Z</time></trkpt><trkpt lat="46.0435817" lon="13.22492"><ele>96.0</ele><time>2026-04-25T07:30:59.717Z</time></trkpt><trkpt lat="46.043455" lon="13.225015"><ele>96.0</ele><time>2026-04-25T07:31:00.717Z</time></trkpt><trkpt lat="46.0433217" lon="13.2251067"><ele>96.0</ele><time>2026-04-25T07:31:01.717Z</time></trkpt><trkpt lat="46.043185" lon="13.2252"><ele>96.0</ele><time>2026-04-25T07:31:02.716Z</time></trkpt><trkpt lat="46.0430467" lon="13.225295"><ele>96.0</ele><time>2026-04-25T07:31:03.717Z</time></trkpt><trkpt lat="46.0429083" lon="13.2253933"><ele>96.0</ele><time>2026-04-25T07:31:04.717Z</time></trkpt><trkpt lat="46.0427683" lon="13.2254883"><ele>96.0</ele><time>2026-04-25T07:31:05.716Z</time></trkpt><trkpt lat="46.0426333" lon="13.22558"><ele>95.75</ele><time>2026-04-25T07:31:06.717Z</time></trkpt><trkpt lat="46.0425067" lon="13.2256583"><ele>95.5</ele><time>2026-04-25T07:31:07.716Z</time></trkpt><trkpt lat="46.0423917" lon="13.2257317"><ele>95.25</ele><time>2026-04-25T07:31:08.717Z</time></trkpt><trkpt lat="46.0422933" lon="13.225795"><ele>95.0</ele><time>2026-04-25T07:31:09.717Z</time></trkpt><trkpt lat="46.0422217" lon="13.2258417"><ele>94.5</ele><time>2026-04-25T07:31:10.717Z</time></trkpt><trkpt lat="46.04215" lon="13.2259033"><ele>94.0</ele><time>2026-04-25T07:31:12.717Z</time></trkpt><trkpt lat="46.04213" lon="13.2260467"><ele>93.5</ele><time>2026-04-25T07:31:21.716Z</time></trkpt><trkpt lat="46.0421533" lon="13.2261467"><ele>93.0</ele><time>2026-04-25T07:31:22.717Z</time></trkpt><trkpt lat="46.0421867" lon="13.2262667"><ele>92.5</ele><time>2026-04-25T07:31:23.716Z</time></trkpt><trkpt lat="46.0422283" lon="13.2263983"><ele>92.0</ele><time>2026-04-25T07:31:24.717Z</time></trkpt><trkpt lat="46.0422683" lon="13.2265517"><ele>92.0</ele><time>2026-04-25T07:31:25.716Z</time></trkpt><trkpt lat="46.04231" lon="13.226695"><ele>92.0</ele><time>2026-04-25T07:31:26.717Z</time></trkpt><trkpt lat="46.042345" lon="13.2268217"><ele>92.0</ele><time>2026-04-25T07:31:27.716Z</time></trkpt><trkpt lat="46.04237" lon="13.2269233"><ele>92.0</ele><time>2026-04-25T07:31:28.717Z</time></trkpt><trkpt lat="46.0423617" lon="13.2270717"><ele>92.0</ele><time>2026-04-25T07:31:30.716Z</time></trkpt><trkpt lat="46.0422533" lon="13.227155"><ele>92.0</ele><time>2026-04-25T07:31:32.717Z</time></trkpt><trkpt lat="46.0421717" lon="13.2271833"><ele>92.0</ele><time>2026-04-25T07:31:33.716Z</time></trkpt><trkpt lat="46.0420883" lon="13.2272333"><ele>92.0</ele><time>2026-04-25T07:31:34.716Z</time></trkpt><trkpt lat="46.041985" lon="13.2273"><ele>92.0</ele><time>2026-04-25T07:31:35.716Z</time></trkpt><trkpt lat="46.0418767" lon="13.2273617"><ele>92.0</ele><time>2026-04-25T07:31:36.717Z</time></trkpt><trkpt lat="46.0417617" lon="13.2274333"><ele>92.0</ele><time>2026-04-25T07:31:37.717Z</time></trkpt><trkpt lat="46.0416433" lon="13.2275167"><ele>92.0</ele><time>2026-04-25T07:31:38.717Z</time></trkpt><trkpt lat="46.04152" lon="13.2276"><ele>92.0</ele><time>2026-04-25T07:31:39.717Z</time></trkpt><trkpt lat="46.0413917" lon="13.2276833"><ele>92.0</ele><time>2026-04-25T07:31:40.717Z</time></trkpt><trkpt lat="46.0412617" lon="13.2277533"><ele>91.75</ele><time>2026-04-25T07:31:41.717Z</time></trkpt><trkpt lat="46.04114" lon="13.2278217"><ele>91.5</ele><time>2026-04-25T07:31:42.717Z</time></trkpt><trkpt lat="46.0410183" lon="13.2278833"><ele>91.25</ele><time>2026-04-25T07:31:43.717Z</time></trkpt><trkpt lat="46.0409083" lon="13.227945"><ele>91.0</ele><time>2026-04-25T07:31:44.716Z</time></trkpt><trkpt lat="46.0408217" lon="13.2279983"><ele>91.16666666666666</ele><time>2026-04-25T07:31:45.716Z</time></trkpt><trkpt lat="46.0407583" lon="13.2280383"><ele>91.33333333333333</ele><time>2026-04-25T07:31:46.717Z</time></trkpt><trkpt lat="46.0406983" lon="13.2280917"><ele>91.5</ele><time>2026-04-25T07:31:48.717Z</time></trkpt><trkpt lat="46.04068" lon="13.22819"><ele>91.66666666666667</ele><time>2026-04-25T07:31:50.717Z</time></trkpt><trkpt lat="46.04071" lon="13.2283467"><ele>91.83333333333334</ele><time>2026-04-25T07:31:52.717Z</time></trkpt><trkpt lat="46.0406883" lon="13.2284533"><ele>92.0</ele><time>2026-04-25T07:31:54.717Z</time></trkpt><trkpt lat="46.0406167" lon="13.228455"><ele>92.0</ele><time>2026-04-25T07:31:56.716Z</time></trkpt><trkpt lat="46.040555" lon="13.22849"><ele>92.0</ele><time>2026-04-25T07:32:00.717Z</time></trkpt><trkpt lat="46.0406433" lon="13.2284733"><ele>92.0</ele><time>2026-04-25T07:32:10.716Z</time></trkpt><trkpt lat="46.040735" lon="13.2285183"><ele>92.0</ele><time>2026-04-25T07:32:12.717Z</time></trkpt><trkpt lat="46.0408" lon="13.228645"><ele>92.0</ele><time>2026-04-25T07:32:14.717Z</time></trkpt><trkpt lat="46.0408533" lon="13.2287167"><ele>92.0</ele><time>2026-04-25T07:32:15.717Z</time></trkpt><trkpt lat="46.0409167" lon="13.2287783"><ele>92.0</ele><time>2026-04-25T07:32:16.717Z</time></trkpt><trkpt lat="46.04101" lon="13.2288167"><ele>92.0</ele><time>2026-04-25T07:32:17.717Z</time></trkpt><trkpt lat="46.04111" lon="13.2288367"><ele>92.0</ele><time>2026-04-25T07:32:18.717Z</time></trkpt><trkpt lat="46.0412283" lon="13.228835"><ele>92.0</ele><time>2026-04-25T07:32:19.716Z</time></trkpt><trkpt lat="46.0413533" lon="13.2288083"><ele>92.0</ele><time>2026-04-25T07:32:20.717Z</time></trkpt><trkpt lat="46.0414783" lon="13.2287583"><ele>92.0</ele><time>2026-04-25T07:32:21.717Z</time></trkpt><trkpt lat="46.041605" lon="13.2286917"><ele>92.0</ele><time>2026-04-25T07:32:22.717Z</time></trkpt><trkpt lat="46.0417283" lon="13.2286117"><ele>92.0</ele><time>2026-04-25T07:32:23.716Z</time></trkpt><trkpt lat="46.0418533" lon="13.2285383"><ele>92.0</ele><time>2026-04-25T07:32:24.717Z</time></trkpt><trkpt lat="46.041965" lon="13.2284667"><ele>92.0</ele><time>2026-04-25T07:32:25.717Z</time></trkpt><trkpt lat="46.042075" lon="13.2284"><ele>92.0</ele><time>2026-04-25T07:32:26.716Z</time></trkpt><trkpt lat="46.0421867" lon="13.22833"><ele>92.0</ele><time>2026-04-25T07:32:27.717Z</time></trkpt><trkpt lat="46.0422967" lon="13.228265"><ele>92.0</ele><time>2026-04-25T07:32:28.717Z</time></trkpt><trkpt lat="46.0424" lon="13.2281967"><ele>92.33333333333334</ele><time>2026-04-25T07:32:29.716Z</time></trkpt><trkpt lat="46.0424917" lon="13.2281383"><ele>92.66666666666667</ele><time>2026-04-25T07:32:30.717Z</time></trkpt><trkpt lat="46.0425617" lon="13.2280967"><ele>93.0</ele><time>2026-04-25T07:32:31.716Z</time></trkpt><trkpt lat="46.0426567" lon="13.22807"><ele>93.33333333333333</ele><time>2026-04-25T07:32:33.717Z</time></trkpt><trkpt lat="46.0427133" lon="13.2281633"><ele>93.66666666666666</ele><time>2026-04-25T07:32:35.717Z</time></trkpt><trkpt lat="46.0427317" lon="13.2282583"><ele>94.0</ele><time>2026-04-25T07:32:36.716Z</time></trkpt><trkpt lat="46.0427567" lon="13.2283667"><ele>94.0</ele><time>2026-04-25T07:32:37.717Z</time></trkpt><trkpt lat="46.0428" lon="13.2284867"><ele>94.0</ele><time>2026-04-25T07:32:38.717Z</time></trkpt><trkpt lat="46.0428467" lon="13.22862"><ele>94.0</ele><time>2026-04-25T07:32:39.717Z</time></trkpt><trkpt lat="46.042895" lon="13.2287517"><ele>94.0</ele><time>2026-04-25T07:32:40.717Z</time></trkpt><trkpt lat="46.0429367" lon="13.2289067"><ele>94.0</ele><time>2026-04-25T07:32:41.716Z</time></trkpt><trkpt lat="46.0429833" lon="13.229065"><ele>93.75</ele><time>2026-04-25T07:32:42.717Z</time></trkpt><trkpt lat="46.0430267" lon="13.22923"><ele>93.5</ele><time>2026-04-25T07:32:43.717Z</time></trkpt><trkpt lat="46.0430717" lon="13.229395"><ele>93.25</ele><time>2026-04-25T07:32:44.716Z</time></trkpt><trkpt lat="46.0431233" lon="13.229575"><ele>93.0</ele><time>2026-04-25T07:32:45.717Z</time></trkpt><trkpt lat="46.043175" lon="13.22976"><ele>93.25</ele><time>2026-04-25T07:32:46.717Z</time></trkpt><trkpt lat="46.0432233" lon="13.2299517"><ele>93.5</ele><time>2026-04-25T07:32:47.717Z</time></trkpt><trkpt lat="46.04328" lon="13.23014"><ele>93.75</ele><time>2026-04-25T07:32:48.716Z</time></trkpt><trkpt lat="46.0433283" lon="13.2303333"><ele>94.0</ele><time>2026-04-25T07:32:49.717Z</time></trkpt><trkpt lat="46.043385" lon="13.2305267"><ele>94.5</ele><time>2026-04-25T07:32:50.717Z</time></trkpt><trkpt lat="46.043435" lon="13.230715"><ele>95.0</ele><time>2026-04-25T07:32:51.716Z</time></trkpt><trkpt lat="46.04349" lon="13.2308983"><ele>95.5</ele><time>2026-04-25T07:32:52.717Z</time></trkpt><trkpt lat="46.0435367" lon="13.23108"><ele>96.0</ele><time>2026-04-25T07:32:53.716Z</time></trkpt><trkpt lat="46.0435883" lon="13.2312633"><ele>96.0</ele><time>2026-04-25T07:32:54.717Z</time></trkpt><trkpt lat="46.0436433" lon="13.231435"><ele>96.0</ele><time>2026-04-25T07:32:55.717Z</time></trkpt><trkpt lat="46.0436967" lon="13.2315983"><ele>96.0</ele><time>2026-04-25T07:32:56.716Z</time></trkpt><trkpt lat="46.0437333" lon="13.231755"><ele>96.0</ele><time>2026-04-25T07:32:57.717Z</time></trkpt><trkpt lat="46.043775" lon="13.2318933"><ele>96.0</ele><time>2026-04-25T07:32:58.716Z</time></trkpt><trkpt lat="46.0438067" lon="13.2320083"><ele>96.0</ele><time>2026-04-25T07:32:59.717Z</time></trkpt><trkpt lat="46.0438367" lon="13.2321017"><ele>96.0</ele><time>2026-04-25T07:33:00.716Z</time></trkpt><trkpt lat="46.0438617" lon="13.2322183"><ele>96.0</ele><time>2026-04-25T07:33:02.716Z</time></trkpt><trkpt lat="46.04377" lon="13.2322983"><ele>96.0</ele><time>2026-04-25T07:33:05.716Z</time></trkpt><trkpt lat="46.0436467" lon="13.23234"><ele>96.0</ele><time>2026-04-25T07:33:07.717Z</time></trkpt><trkpt lat="46.0435683" lon="13.2323717"><ele>96.0</ele><time>2026-04-25T07:33:08.717Z</time></trkpt><trkpt lat="46.0434783" lon="13.232405"><ele>96.0</ele><time>2026-04-25T07:33:09.716Z</time></trkpt><trkpt lat="46.0433767" lon="13.2324467"><ele>96.0</ele><time>2026-04-25T07:33:10.717Z</time></trkpt><trkpt lat="46.0432717" lon="13.2324867"><ele>96.0</ele><time>2026-04-25T07:33:11.717Z</time></trkpt><trkpt lat="46.04316" lon="13.232525"><ele>96.5</ele><time>2026-04-25T07:33:12.717Z</time></trkpt><trkpt lat="46.0430483" lon="13.232575"><ele>97.0</ele><time>2026-04-25T07:33:13.716Z</time></trkpt><trkpt lat="46.0429317" lon="13.232625"><ele>97.5</ele><time>2026-04-25T07:33:14.716Z</time></trkpt><trkpt lat="46.04281" lon="13.2326767"><ele>98.0</ele><time>2026-04-25T07:33:15.717Z</time></trkpt><trkpt lat="46.0426917" lon="13.2327183"><ele>98.0</ele><time>2026-04-25T07:33:16.717Z</time></trkpt><trkpt lat="46.0425733" lon="13.23277"><ele>98.0</ele><time>2026-04-25T07:33:17.716Z</time></trkpt><trkpt lat="46.04245" lon="13.2328283"><ele>98.0</ele><time>2026-04-25T07:33:18.716Z</time></trkpt><trkpt lat="46.0423267" lon="13.2328783"><ele>98.0</ele><time>2026-04-25T07:33:19.716Z</time></trkpt><trkpt lat="46.0421967" lon="13.2329333"><ele>97.5</ele><time>2026-04-25T07:33:20.717Z</time></trkpt><trkpt lat="46.042075" lon="13.2329833"><ele>97.0</ele><time>2026-04-25T07:33:21.717Z</time></trkpt><trkpt lat="46.0419433" lon="13.2330317"><ele>96.5</ele><time>2026-04-25T07:33:22.716Z</time></trkpt><trkpt lat="46.041815" lon="13.233085"><ele>96.0</ele><time>2026-04-25T07:33:23.717Z</time></trkpt><trkpt lat="46.04169" lon="13.23314"><ele>95.25</ele><time>2026-04-25T07:33:24.716Z</time></trkpt><trkpt lat="46.0415583" lon="13.2331967"><ele>94.5</ele><time>2026-04-25T07:33:25.716Z</time></trkpt><trkpt lat="46.0414283" lon="13.2332517"><ele>93.75</ele><time>2026-04-25T07:33:26.717Z</time></trkpt><trkpt lat="46.0412983" lon="13.2333117"><ele>93.0</ele><time>2026-04-25T07:33:27.717Z</time></trkpt><trkpt lat="46.0411683" lon="13.233365"><ele>93.0</ele><time>2026-04-25T07:33:28.717Z</time></trkpt><trkpt lat="46.041035" lon="13.233425"><ele>93.0</ele><time>2026-04-25T07:33:29.716Z</time></trkpt><trkpt lat="46.0409033" lon="13.2334783"><ele>93.0</ele><time>2026-04-25T07:33:30.717Z</time></trkpt><trkpt lat="46.0407733" lon="13.2335383"><ele>93.0</ele><time>2026-04-25T07:33:31.716Z</time></trkpt><trkpt lat="46.0406383" lon="13.233595"><ele>93.0</ele><time>2026-04-25T07:33:32.717Z</time></trkpt><trkpt lat="46.0405067" lon="13.2336567"><ele>93.0</ele><time>2026-04-25T07:33:33.717Z</time></trkpt><trkpt lat="46.04037" lon="13.23372"><ele>93.0</ele><time>2026-04-25T07:33:34.717Z</time></trkpt><trkpt lat="46.04023" lon="13.2337817"><ele>93.0</ele><time>2026-04-25T07:33:35.716Z</time></trkpt><trkpt lat="46.0400933" lon="13.2338367"><ele>93.0</ele><time>2026-04-25T07:33:36.717Z</time></trkpt><trkpt lat="46.0399633" lon="13.2338883"><ele>93.0</ele><time>2026-04-25T07:33:37.716Z</time></trkpt><trkpt lat="46.039825" lon="13.2339433"><ele>93.0</ele><time>2026-04-25T07:33:38.717Z</time></trkpt><trkpt lat="46.0396883" lon="13.234"><ele>93.0</ele><time>2026-04-25T07:33:39.717Z</time></trkpt><trkpt lat="46.0395583" lon="13.2340567"><ele>93.25</ele><time>2026-04-25T07:33:40.717Z</time></trkpt><trkpt lat="46.0394283" lon="13.234105"><ele>93.5</ele><time>2026-04-25T07:33:41.716Z</time></trkpt><trkpt lat="46.0392983" lon="13.23415"><ele>93.75</ele><time>2026-04-25T07:33:42.717Z</time></trkpt><trkpt lat="46.0391717" lon="13.23419"><ele>94.0</ele><time>2026-04-25T07:33:43.717Z</time></trkpt><trkpt lat="46.03903" lon="13.2342133"><ele>94.0</ele><time>2026-04-25T07:33:44.717Z</time></trkpt><trkpt lat="46.038895" lon="13.234225"><ele>94.0</ele><time>2026-04-25T07:33:45.716Z</time></trkpt><trkpt lat="46.0387633" lon="13.23423"><ele>94.0</ele><time>2026-04-25T07:33:46.716Z</time></trkpt><trkpt lat="46.038625" lon="13.23423"><ele>94.0</ele><time>2026-04-25T07:33:47.717Z</time></trkpt><trkpt lat="46.03848" lon="13.234235"><ele>94.0</ele><time>2026-04-25T07:33:48.716Z</time></trkpt><trkpt lat="46.0383383" lon="13.2342467"><ele>94.0</ele><time>2026-04-25T07:33:49.717Z</time></trkpt><trkpt lat="46.038195" lon="13.2342433"><ele>94.0</ele><time>2026-04-25T07:33:50.716Z</time></trkpt><trkpt lat="46.03806" lon="13.2342467"><ele>94.0</ele><time>2026-04-25T07:33:51.717Z</time></trkpt><trkpt lat="46.037925" lon="13.2342417"><ele>93.75</ele><time>2026-04-25T07:33:52.717Z</time></trkpt><trkpt lat="46.0377867" lon="13.2342433"><ele>93.5</ele><time>2026-04-25T07:33:53.717Z</time></trkpt><trkpt lat="46.0376467" lon="13.2342417"><ele>93.25</ele><time>2026-04-25T07:33:54.717Z</time></trkpt><trkpt lat="46.0375017" lon="13.2342367"><ele>93.0</ele><time>2026-04-25T07:33:55.717Z</time></trkpt><trkpt lat="46.03736" lon="13.2342433"><ele>92.80000000000001</ele><time>2026-04-25T07:33:56.717Z</time></trkpt><trkpt lat="46.0372217" lon="13.2342517"><ele>92.6</ele><time>2026-04-25T07:33:57.717Z</time></trkpt><trkpt lat="46.0370983" lon="13.2342583"><ele>92.4</ele><time>2026-04-25T07:33:58.717Z</time></trkpt><trkpt lat="46.0370117" lon="13.2342683"><ele>92.19999999999999</ele><time>2026-04-25T07:33:59.717Z</time></trkpt><trkpt lat="46.03692" lon="13.2342583"><ele>92.0</ele><time>2026-04-25T07:34:00.716Z</time></trkpt><trkpt lat="46.0368517" lon="13.2342533"><ele>92.0</ele><time>2026-04-25T07:34:01.716Z</time></trkpt><trkpt lat="46.03675" lon="13.2342083"><ele>92.0</ele><time>2026-04-25T07:34:03.717Z</time></trkpt><trkpt lat="46.0366667" lon="13.2340617"><ele>92.0</ele><time>2026-04-25T07:34:05.716Z</time></trkpt><trkpt lat="46.036625" lon="13.23396"><ele>92.0</ele><time>2026-04-25T07:34:06.716Z</time></trkpt><trkpt lat="46.03657" lon="13.2338383"><ele>92.0</ele><time>2026-04-25T07:34:07.716Z</time></trkpt><trkpt lat="46.0365133" lon="13.233705"><ele>90.75</ele><time>2026-04-25T07:34:08.717Z</time></trkpt><trkpt lat="46.036455" lon="13.2335667"><ele>89.5</ele><time>2026-04-25T07:34:09.717Z</time></trkpt><trkpt lat="46.0363933" lon="13.2334317"><ele>88.25</ele><time>2026-04-25T07:34:10.717Z</time></trkpt><trkpt lat="46.0363233" lon="13.2332833"><ele>87.0</ele><time>2026-04-25T07:34:11.717Z</time></trkpt><trkpt lat="46.036255" lon="13.23313"><ele>86.5</ele><time>2026-04-25T07:34:12.717Z</time></trkpt><trkpt lat="46.0361883" lon="13.2329817"><ele>86.0</ele><time>2026-04-25T07:34:13.716Z</time></trkpt><trkpt lat="46.03612" lon="13.232835"><ele>85.5</ele><time>2026-04-25T07:34:14.717Z</time></trkpt><trkpt lat="46.0360533" lon="13.23268"><ele>85.0</ele><time>2026-04-25T07:34:15.716Z</time></trkpt><trkpt lat="46.035985" lon="13.2325267"><ele>85.0</ele><time>2026-04-25T07:34:16.717Z</time></trkpt><trkpt lat="46.035915" lon="13.232375"><ele>85.0</ele><time>2026-04-25T07:34:17.717Z</time></trkpt><trkpt lat="46.035845" lon="13.232225"><ele>85.0</ele><time>2026-04-25T07:34:18.716Z</time></trkpt><trkpt lat="46.0357733" lon="13.2320783"><ele>85.0</ele><time>2026-04-25T07:34:19.716Z</time></trkpt><trkpt lat="46.0357083" lon="13.2319267"><ele>86.0</ele><time>2026-04-25T07:34:20.717Z</time></trkpt><trkpt lat="46.0356467" lon="13.231775"><ele>87.0</ele><time>2026-04-25T07:34:21.717Z</time></trkpt><trkpt lat="46.035585" lon="13.23162"><ele>88.0</ele><time>2026-04-25T07:34:22.717Z</time></trkpt><trkpt lat="46.03553" lon="13.2314617"><ele>89.0</ele><time>2026-04-25T07:34:23.717Z</time></trkpt><trkpt lat="46.03548" lon="13.2313033"><ele>88.80000000000001</ele><time>2026-04-25T07:34:24.717Z</time></trkpt><trkpt lat="46.0354317" lon="13.2311483"><ele>88.60000000000001</ele><time>2026-04-25T07:34:25.717Z</time></trkpt><trkpt lat="46.0353783" lon="13.231005"><ele>88.4</ele><time>2026-04-25T07:34:26.716Z</time></trkpt><trkpt lat="46.0353317" lon="13.230865"><ele>88.2</ele><time>2026-04-25T07:34:27.717Z</time></trkpt><trkpt lat="46.0352883" lon="13.2307317"><ele>88.0</ele><time>2026-04-25T07:34:28.717Z</time></trkpt><trkpt lat="46.0352433" lon="13.2306117"><ele>88.0</ele><time>2026-04-25T07:34:29.716Z</time></trkpt><trkpt lat="46.0352" lon="13.2304933"><ele>88.0</ele><time>2026-04-25T07:34:30.717Z</time></trkpt><trkpt lat="46.0351583" lon="13.2303717"><ele>88.0</ele><time>2026-04-25T07:34:31.716Z</time></trkpt><trkpt lat="46.0351167" lon="13.23024"><ele>88.0</ele><time>2026-04-25T07:34:32.717Z</time></trkpt><trkpt lat="46.0350717" lon="13.230105"><ele>88.0</ele><time>2026-04-25T07:34:33.716Z</time></trkpt><trkpt lat="46.035025" lon="13.2299667"><ele>88.0</ele><time>2026-04-25T07:34:34.716Z</time></trkpt><trkpt lat="46.03498" lon="13.2298333"><ele>88.0</ele><time>2026-04-25T07:34:35.716Z</time></trkpt><trkpt lat="46.03494" lon="13.2297033"><ele>88.0</ele><time>2026-04-25T07:34:36.717Z</time></trkpt><trkpt lat="46.0349" lon="13.2295767"><ele>88.0</ele><time>2026-04-25T07:34:37.717Z</time></trkpt><trkpt lat="46.0348583" lon="13.229465"><ele>88.0</ele><time>2026-04-25T07:34:38.717Z</time></trkpt><trkpt lat="46.0348333" lon="13.229375"><ele>88.0</ele><time>2026-04-25T07:34:39.717Z</time></trkpt><trkpt lat="46.0347833" lon="13.22923"><ele>88.0</ele><time>2026-04-25T07:34:41.717Z</time></trkpt><trkpt lat="46.0347183" lon="13.2291417"><ele>88.0</ele><time>2026-04-25T07:34:43.717Z</time></trkpt><trkpt lat="46.03461" lon="13.2290733"><ele>88.0</ele><time>2026-04-25T07:34:45.717Z</time></trkpt><trkpt lat="46.03453" lon="13.229045"><ele>88.0</ele><time>2026-04-25T07:34:46.716Z</time></trkpt><trkpt lat="46.0344417" lon="13.2290367"><ele>88.0</ele><time>2026-04-25T07:34:47.717Z</time></trkpt><trkpt lat="46.0343383" lon="13.2290233"><ele>88.0</ele><time>2026-04-25T07:34:48.717Z</time></trkpt><trkpt lat="46.0342233" lon="13.2290133"><ele>88.0</ele><time>2026-04-25T07:34:49.717Z</time></trkpt><trkpt lat="46.03411" lon="13.2289967"><ele>88.0</ele><time>2026-04-25T07:34:50.716Z</time></trkpt><trkpt lat="46.03399" lon="13.2289783"><ele>87.5</ele><time>2026-04-25T07:34:51.716Z</time></trkpt><trkpt lat="46.0338667" lon="13.2289583"><ele>87.0</ele><time>2026-04-25T07:34:52.716Z</time></trkpt><trkpt lat="46.0337467" lon="13.228935"><ele>86.5</ele><time>2026-04-25T07:34:53.716Z</time></trkpt><trkpt lat="46.0336267" lon="13.22892"><ele>86.0</ele><time>2026-04-25T07:34:54.716Z</time></trkpt><trkpt lat="46.0335083" lon="13.2288983"><ele>86.0</ele><time>2026-04-25T07:34:55.716Z</time></trkpt><trkpt lat="46.033375" lon="13.2288767"><ele>86.0</ele><time>2026-04-25T07:34:56.717Z</time></trkpt><trkpt lat="46.0332267" lon="13.2288533"><ele>86.0</ele><time>2026-04-25T07:34:57.717Z</time></trkpt><trkpt lat="46.03308" lon="13.228825"><ele>86.0</ele><time>2026-04-25T07:34:58.717Z</time></trkpt><trkpt lat="46.0329367" lon="13.2287983"><ele>86.33333333333334</ele><time>2026-04-25T07:34:59.716Z</time></trkpt><trkpt lat="46.0327933" lon="13.22877"><ele>86.66666666666667</ele><time>2026-04-25T07:35:00.717Z</time></trkpt><trkpt lat="46.032635" lon="13.2287433"><ele>87.0</ele><time>2026-04-25T07:35:01.717Z</time></trkpt><trkpt lat="46.03248" lon="13.22872"><ele>87.33333333333333</ele><time>2026-04-25T07:35:02.716Z</time></trkpt><trkpt lat="46.0323267" lon="13.22869"><ele>87.66666666666666</ele><time>2026-04-25T07:35:03.716Z</time></trkpt><trkpt lat="46.03217" lon="13.2286667"><ele>88.0</ele><time>2026-04-25T07:35:04.717Z</time></trkpt><trkpt lat="46.0320167" lon="13.2286417"><ele>88.0</ele><time>2026-04-25T07:35:05.716Z</time></trkpt><trkpt lat="46.0318633" lon="13.2286133"><ele>88.0</ele><time>2026-04-25T07:35:06.717Z</time></trkpt><trkpt lat="46.031705" lon="13.2285817"><ele>88.0</ele><time>2026-04-25T07:35:07.716Z</time></trkpt><trkpt lat="46.03154" lon="13.2285483"><ele>88.0</ele><time>2026-04-25T07:35:08.716Z</time></trkpt><trkpt lat="46.0313733" lon="13.2285117"><ele>88.0</ele><time>2026-04-25T07:35:09.717Z</time></trkpt><trkpt lat="46.0312117" lon="13.2284783"><ele>88.0</ele><time>2026-04-25T07:35:10.717Z</time></trkpt><trkpt lat="46.0310533" lon="13.2284433"><ele>88.0</ele><time>2026-04-25T07:35:11.717Z</time></trkpt><trkpt lat="46.03089" lon="13.2284067"><ele>88.0</ele><time>2026-04-25T07:35:12.717Z</time></trkpt><trkpt lat="46.03072" lon="13.22837"><ele>88.0</ele><time>2026-04-25T07:35:13.716Z</time></trkpt><trkpt lat="46.03056" lon="13.2283367"><ele>87.75</ele><time>2026-04-25T07:35:14.716Z</time></trkpt><trkpt lat="46.030425" lon="13.2283083"><ele>87.5</ele><time>2026-04-25T07:35:15.716Z</time></trkpt><trkpt lat="46.030305" lon="13.2282883"><ele>87.25</ele><time>2026-04-25T07:35:16.717Z</time></trkpt><trkpt lat="46.0302017" lon="13.2282633"><ele>87.0</ele><time>2026-04-25T07:35:17.716Z</time></trkpt><trkpt lat="46.0301067" lon="13.2282383"><ele>87.0</ele><time>2026-04-25T07:35:18.717Z</time></trkpt><trkpt lat="46.030025" lon="13.2282283"><ele>87.0</ele><time>2026-04-25T07:35:19.717Z</time></trkpt><trkpt lat="46.0299283" lon="13.2281983"><ele>87.0</ele><time>2026-04-25T07:35:21.716Z</time></trkpt><trkpt lat="46.0298367" lon="13.2281467"><ele>87.0</ele><time>2026-04-25T07:35:26.717Z</time></trkpt><trkpt lat="46.0297417" lon="13.2281183"><ele>87.0</ele><time>2026-04-25T07:35:28.716Z</time></trkpt><trkpt lat="46.0296667" lon="13.2281083"><ele>86.39999999999999</ele><time>2026-04-25T07:35:29.717Z</time></trkpt><trkpt lat="46.0295783" lon="13.228095"><ele>85.8</ele><time>2026-04-25T07:35:30.716Z</time></trkpt><trkpt lat="46.0294817" lon="13.2280733"><ele>85.2</ele><time>2026-04-25T07:35:31.717Z</time></trkpt><trkpt lat="46.029375" lon="13.2280567"><ele>84.6</ele><time>2026-04-25T07:35:32.717Z</time></trkpt><trkpt lat="46.0292667" lon="13.2280367"><ele>84.0</ele><time>2026-04-25T07:35:33.716Z</time></trkpt><trkpt lat="46.029145" lon="13.22802"><ele>83.75</ele><time>2026-04-25T07:35:34.717Z</time></trkpt><trkpt lat="46.02902" lon="13.228"><ele>83.5</ele><time>2026-04-25T07:35:35.717Z</time></trkpt><trkpt lat="46.0288833" lon="13.2279833"><ele>83.25</ele><time>2026-04-25T07:35:36.716Z</time></trkpt><trkpt lat="46.0287467" lon="13.2279617"><ele>83.0</ele><time>2026-04-25T07:35:37.717Z</time></trkpt><trkpt lat="46.0286133" lon="13.2279417"><ele>83.0</ele><time>2026-04-25T07:35:38.716Z</time></trkpt><trkpt lat="46.028475" lon="13.227915"><ele>83.0</ele><time>2026-04-25T07:35:39.717Z</time></trkpt><trkpt lat="46.0283383" lon="13.2278967"><ele>83.0</ele><time>2026-04-25T07:35:40.717Z</time></trkpt><trkpt lat="46.0282033" lon="13.2278717"><ele>83.0</ele><time>2026-04-25T07:35:41.716Z</time></trkpt><trkpt lat="46.02806" lon="13.2278517"><ele>83.25</ele><time>2026-04-25T07:35:42.716Z</time></trkpt><trkpt lat="46.0279183" lon="13.227835"><ele>83.5</ele><time>2026-04-25T07:35:43.717Z</time></trkpt><trkpt lat="46.0277833" lon="13.22781"><ele>83.75</ele><time>2026-04-25T07:35:44.717Z</time></trkpt><trkpt lat="46.02765" lon="13.2277883"><ele>84.0</ele><time>2026-04-25T07:35:45.716Z</time></trkpt><trkpt lat="46.0275133" lon="13.227765"><ele>83.5</ele><time>2026-04-25T07:35:46.717Z</time></trkpt><trkpt lat="46.027375" lon="13.2277383"><ele>83.0</ele><time>2026-04-25T07:35:47.717Z</time></trkpt><trkpt lat="46.0272333" lon="13.2277133"><ele>82.5</ele><time>2026-04-25T07:35:48.717Z</time></trkpt><trkpt lat="46.0270917" lon="13.2276883"><ele>82.0</ele><time>2026-04-25T07:35:49.716Z</time></trkpt><trkpt lat="46.0269517" lon="13.2276583"><ele>82.0</ele><time>2026-04-25T07:35:50.717Z</time></trkpt><trkpt lat="46.0268083" lon="13.2276283"><ele>82.0</ele><time>2026-04-25T07:35:51.717Z</time></trkpt><trkpt lat="46.0266683" lon="13.2275883"><ele>82.0</ele><time>2026-04-25T07:35:52.717Z</time></trkpt><trkpt lat="46.0265217" lon="13.2275583"><ele>82.0</ele><time>2026-04-25T07:35:53.717Z</time></trkpt><trkpt lat="46.0263683" lon="13.2275267"><ele>81.66666666666666</ele><time>2026-04-25T07:35:54.717Z</time></trkpt><trkpt lat="46.0262167" lon="13.2274967"><ele>81.33333333333333</ele><time>2026-04-25T07:35:55.717Z</time></trkpt><trkpt lat="46.0260617" lon="13.2274683"><ele>81.0</ele><time>2026-04-25T07:35:56.717Z</time></trkpt><trkpt lat="46.0259" lon="13.22744"><ele>80.33333333333333</ele><time>2026-04-25T07:35:57.716Z</time></trkpt><trkpt lat="46.0257333" lon="13.2274117"><ele>79.66666666666666</ele><time>2026-04-25T07:35:58.716Z</time></trkpt><trkpt lat="46.025565" lon="13.2273833"><ele>79.0</ele><time>2026-04-25T07:35:59.717Z</time></trkpt><trkpt lat="46.0253967" lon="13.2273583"><ele>79.0</ele><time>2026-04-25T07:36:00.717Z</time></trkpt><trkpt lat="46.0252217" lon="13.2273283"><ele>79.0</ele><time>2026-04-25T07:36:01.716Z</time></trkpt><trkpt lat="46.0250517" lon="13.2273"><ele>79.0</ele><time>2026-04-25T07:36:02.716Z</time></trkpt><trkpt lat="46.0248783" lon="13.22727"><ele>79.0</ele><time>2026-04-25T07:36:03.716Z</time></trkpt><trkpt lat="46.0247033" lon="13.2272367"><ele>79.0</ele><time>2026-04-25T07:36:04.716Z</time></trkpt><trkpt lat="46.02453" lon="13.2272083"><ele>79.0</ele><time>2026-04-25T07:36:05.716Z</time></trkpt><trkpt lat="46.0243583" lon="13.22718"><ele>79.0</ele><time>2026-04-25T07:36:06.716Z</time></trkpt><trkpt lat="46.024185" lon="13.2271533"><ele>79.0</ele><time>2026-04-25T07:36:07.717Z</time></trkpt><trkpt lat="46.024005" lon="13.2271217"><ele>79.0</ele><time>2026-04-25T07:36:08.716Z</time></trkpt><trkpt lat="46.0238317" lon="13.2270933"><ele>79.33333333333333</ele><time>2026-04-25T07:36:09.717Z</time></trkpt><trkpt lat="46.0236567" lon="13.2270633"><ele>79.66666666666667</ele><time>2026-04-25T07:36:10.717Z</time></trkpt><trkpt lat="46.02348" lon="13.227025"><ele>80.0</ele><time>2026-04-25T07:36:11.716Z</time></trkpt><trkpt lat="46.0233033" lon="13.2269983"><ele>80.33333333333334</ele><time>2026-04-25T07:36:12.717Z</time></trkpt><trkpt lat="46.0231267" lon="13.2269667"><ele>80.66666666666667</ele><time>2026-04-25T07:36:13.717Z</time></trkpt><trkpt lat="46.0229517" lon="13.2269417"><ele>81.0</ele><time>2026-04-25T07:36:14.717Z</time></trkpt><trkpt lat="46.02278" lon="13.2269133"><ele>81.0</ele><time>2026-04-25T07:36:15.717Z</time></trkpt><trkpt lat="46.0226217" lon="13.2268883"><ele>81.0</ele><time>2026-04-25T07:36:16.717Z</time></trkpt><trkpt lat="46.02247" lon="13.2268717"><ele>81.0</ele><time>2026-04-25T07:36:17.716Z</time></trkpt><trkpt lat="46.02233" lon="13.22686"><ele>81.25</ele><time>2026-04-25T07:36:18.716Z</time></trkpt><trkpt lat="46.0221867" lon="13.2268633"><ele>81.5</ele><time>2026-04-25T07:36:19.717Z</time></trkpt><trkpt lat="46.02204" lon="13.2268883"><ele>81.75</ele><time>2026-04-25T07:36:20.717Z</time></trkpt><trkpt lat="46.0218933" lon="13.2269267"><ele>82.0</ele><time>2026-04-25T07:36:21.717Z</time></trkpt><trkpt lat="46.021735" lon="13.226975"><ele>81.66666666666666</ele><time>2026-04-25T07:36:22.717Z</time></trkpt><trkpt lat="46.021575" lon="13.22703"><ele>81.33333333333333</ele><time>2026-04-25T07:36:23.716Z</time></trkpt><trkpt lat="46.02142" lon="13.2270983"><ele>81.0</ele><time>2026-04-25T07:36:24.717Z</time></trkpt><trkpt lat="46.021265" lon="13.22717"><ele>81.0</ele><time>2026-04-25T07:36:25.716Z</time></trkpt><trkpt lat="46.0211033" lon="13.2272517"><ele>81.0</ele><time>2026-04-25T07:36:26.717Z</time></trkpt><trkpt lat="46.0209383" lon="13.22733"><ele>81.0</ele><time>2026-04-25T07:36:27.717Z</time></trkpt><trkpt lat="46.0207767" lon="13.22741"><ele>81.66666666666667</ele><time>2026-04-25T07:36:28.717Z</time></trkpt><trkpt lat="46.020615" lon="13.22749"><ele>82.33333333333334</ele><time>2026-04-25T07:36:29.717Z</time></trkpt><trkpt lat="46.0204483" lon="13.2275733"><ele>83.0</ele><time>2026-04-25T07:36:30.717Z</time></trkpt><trkpt lat="46.0202817" lon="13.2276583"><ele>83.0</ele><time>2026-04-25T07:36:31.717Z</time></trkpt><trkpt lat="46.0201117" lon="13.22774"><ele>83.0</ele><time>2026-04-25T07:36:32.717Z</time></trkpt><trkpt lat="46.019945" lon="13.2278233"><ele>83.0</ele><time>2026-04-25T07:36:33.717Z</time></trkpt><trkpt lat="46.0197817" lon="13.2279017"><ele>82.0</ele><time>2026-04-25T07:36:34.716Z</time></trkpt><trkpt lat="46.0196117" lon="13.2279767"><ele>81.0</ele><time>2026-04-25T07:36:35.717Z</time></trkpt><trkpt lat="46.01944" lon="13.2280567"><ele>80.0</ele><time>2026-04-25T07:36:36.717Z</time></trkpt><trkpt lat="46.0192717" lon="13.2281383"><ele>79.66666666666667</ele><time>2026-04-25T07:36:37.716Z</time></trkpt><trkpt lat="46.019105" lon="13.2282217"><ele>79.33333333333333</ele><time>2026-04-25T07:36:38.716Z</time></trkpt><trkpt lat="46.0189317" lon="13.228305"><ele>79.0</ele><time>2026-04-25T07:36:39.716Z</time></trkpt><trkpt lat="46.0187617" lon="13.2283867"><ele>79.0</ele><time>2026-04-25T07:36:40.716Z</time></trkpt><trkpt lat="46.0185883" lon="13.22847"><ele>79.0</ele><time>2026-04-25T07:36:41.716Z</time></trkpt><trkpt lat="46.0184167" lon="13.22855"><ele>79.0</ele><time>2026-04-25T07:36:42.716Z</time></trkpt><trkpt lat="46.01824" lon="13.2286133"><ele>79.0</ele><time>2026-04-25T07:36:43.717Z</time></trkpt><trkpt lat="46.0180617" lon="13.22867"><ele>79.0</ele><time>2026-04-25T07:36:44.717Z</time></trkpt><trkpt lat="46.01788" lon="13.2287183"><ele>79.0</ele><time>2026-04-25T07:36:45.717Z</time></trkpt><trkpt lat="46.0176967" lon="13.228765"><ele>79.0</ele><time>2026-04-25T07:36:46.717Z</time></trkpt><trkpt lat="46.0175167" lon="13.2288033"><ele>79.0</ele><time>2026-04-25T07:36:47.716Z</time></trkpt><trkpt lat="46.017335" lon="13.22884"><ele>79.0</ele><time>2026-04-25T07:36:48.717Z</time></trkpt><trkpt lat="46.017145" lon="13.2288683"><ele>79.0</ele><time>2026-04-25T07:36:49.716Z</time></trkpt><trkpt lat="46.0169467" lon="13.2288883"><ele>79.0</ele><time>2026-04-25T07:36:50.717Z</time></trkpt><trkpt lat="46.01674" lon="13.228945"><ele>79.0</ele><time>2026-04-25T07:36:51.717Z</time></trkpt><trkpt lat="46.0165667" lon="13.22898"><ele>78.33333333333333</ele><time>2026-04-25T07:36:52.717Z</time></trkpt><trkpt lat="46.0163917" lon="13.2290217"><ele>77.66666666666667</ele><time>2026-04-25T07:36:53.716Z</time></trkpt><trkpt lat="46.0162133" lon="13.229055"><ele>77.0</ele><time>2026-04-25T07:36:54.717Z</time></trkpt><trkpt lat="46.0160383" lon="13.22907"><ele>77.0</ele><time>2026-04-25T07:36:55.717Z</time></trkpt><trkpt lat="46.015865" lon="13.229075"><ele>77.0</ele><time>2026-04-25T07:36:56.716Z</time></trkpt><trkpt lat="46.0156917" lon="13.2290633"><ele>77.0</ele><time>2026-04-25T07:36:57.716Z</time></trkpt><trkpt lat="46.0155183" lon="13.2290333"><ele>76.66666666666667</ele><time>2026-04-25T07:36:58.716Z</time></trkpt><trkpt lat="46.015345" lon="13.22899"><ele>76.33333333333333</ele><time>2026-04-25T07:36:59.716Z</time></trkpt><trkpt lat="46.0151767" lon="13.2289367"><ele>76.0</ele><time>2026-04-25T07:37:00.717Z</time></trkpt><trkpt lat="46.0150067" lon="13.2288667"><ele>76.0</ele><time>2026-04-25T07:37:01.717Z</time></trkpt><trkpt lat="46.01484" lon="13.22879"><ele>76.0</ele><time>2026-04-25T07:37:02.716Z</time></trkpt><trkpt lat="46.0146717" lon="13.2287033"><ele>76.0</ele><time>2026-04-25T07:37:03.717Z</time></trkpt><trkpt lat="46.0145133" lon="13.2285967"><ele>76.0</ele><time>2026-04-25T07:37:04.717Z</time></trkpt><trkpt lat="46.0143533" lon="13.2284783"><ele>76.0</ele><time>2026-04-25T07:37:05.717Z</time></trkpt><trkpt lat="46.0142017" lon="13.2283533"><ele>76.0</ele><time>2026-04-25T07:37:06.717Z</time></trkpt><trkpt lat="46.0140467" lon="13.22823"><ele>77.66666666666666</ele><time>2026-04-25T07:37:07.716Z</time></trkpt><trkpt lat="46.0138883" lon="13.2281117"><ele>79.33333333333333</ele><time>2026-04-25T07:37:08.716Z</time></trkpt><trkpt lat="46.0137267" lon="13.22799"><ele>81.0</ele><time>2026-04-25T07:37:09.717Z</time></trkpt><trkpt lat="46.013565" lon="13.2278717"><ele>81.0</ele><time>2026-04-25T07:37:10.717Z</time></trkpt><trkpt lat="46.0133983" lon="13.2277667"><ele>81.0</ele><time>2026-04-25T07:37:11.716Z</time></trkpt><trkpt lat="46.013225" lon="13.22768"><ele>81.0</ele><time>2026-04-25T07:37:12.716Z</time></trkpt><trkpt lat="46.0130517" lon="13.2276233"><ele>80.0</ele><time>2026-04-25T07:37:13.717Z</time></trkpt><trkpt lat="46.012875" lon="13.2275883"><ele>79.0</ele><time>2026-04-25T07:37:14.717Z</time></trkpt><trkpt lat="46.0126933" lon="13.2275667"><ele>78.0</ele><time>2026-04-25T07:37:15.716Z</time></trkpt><trkpt lat="46.0125083" lon="13.2275633"><ele>77.0</ele><time>2026-04-25T07:37:16.717Z</time></trkpt><trkpt lat="46.0123233" lon="13.227585"><ele>76.0</ele><time>2026-04-25T07:37:17.716Z</time></trkpt><trkpt lat="46.0121417" lon="13.227625"><ele>75.0</ele><time>2026-04-25T07:37:18.716Z</time></trkpt><trkpt lat="46.0119517" lon="13.22768"><ele>75.0</ele><time>2026-04-25T07:37:19.717Z</time></trkpt><trkpt lat="46.0117767" lon="13.2277417"><ele>75.0</ele><time>2026-04-25T07:37:20.716Z</time></trkpt><trkpt lat="46.0116017" lon="13.22781"><ele>75.0</ele><time>2026-04-25T07:37:21.717Z</time></trkpt><trkpt lat="46.01143" lon="13.2278767"><ele>75.0</ele><time>2026-04-25T07:37:22.717Z</time></trkpt><trkpt lat="46.0112567" lon="13.227945"><ele>75.0</ele><time>2026-04-25T07:37:23.717Z</time></trkpt><trkpt lat="46.011085" lon="13.2280117"><ele>75.0</ele><time>2026-04-25T07:37:24.717Z</time></trkpt><trkpt lat="46.0109033" lon="13.2280783"><ele>74.33333333333333</ele><time>2026-04-25T07:37:25.717Z</time></trkpt><trkpt lat="46.01073" lon="13.22814"><ele>73.66666666666666</ele><time>2026-04-25T07:37:26.716Z</time></trkpt><trkpt lat="46.0105533" lon="13.2282017"><ele>73.0</ele><time>2026-04-25T07:37:27.717Z</time></trkpt><trkpt lat="46.0103817" lon="13.228265"><ele>73.0</ele><time>2026-04-25T07:37:28.717Z</time></trkpt><trkpt lat="46.010225" lon="13.22832"><ele>73.0</ele><time>2026-04-25T07:37:29.716Z</time></trkpt><trkpt lat="46.0100733" lon="13.2283767"><ele>73.0</ele><time>2026-04-25T07:37:30.717Z</time></trkpt><trkpt lat="46.0099333" lon="13.22843"><ele>73.5</ele><time>2026-04-25T07:37:31.717Z</time></trkpt><trkpt lat="46.0098017" lon="13.2284717"><ele>74.0</ele><time>2026-04-25T07:37:32.717Z</time></trkpt><trkpt lat="46.009675" lon="13.2285183"><ele>74.5</ele><time>2026-04-25T07:37:33.716Z</time></trkpt><trkpt lat="46.009555" lon="13.228565"><ele>75.0</ele><time>2026-04-25T07:37:34.716Z</time></trkpt><trkpt lat="46.00944" lon="13.2286017"><ele>75.0</ele><time>2026-04-25T07:37:35.716Z</time></trkpt><trkpt lat="46.0093367" lon="13.2286467"><ele>75.0</ele><time>2026-04-25T07:37:36.717Z</time></trkpt><trkpt lat="46.009235" lon="13.2286817"><ele>75.0</ele><time>2026-04-25T07:37:37.717Z</time></trkpt><trkpt lat="46.0091383" lon="13.228715"><ele>75.0</ele><time>2026-04-25T07:37:38.716Z</time></trkpt><trkpt lat="46.0090517" lon="13.2287433"><ele>75.0</ele><time>2026-04-25T07:37:39.717Z</time></trkpt><trkpt lat="46.008975" lon="13.2287717"><ele>75.16666666666667</ele><time>2026-04-25T07:37:40.716Z</time></trkpt><trkpt lat="46.008905" lon="13.228795"><ele>75.33333333333333</ele><time>2026-04-25T07:37:41.717Z</time></trkpt><trkpt lat="46.008835" lon="13.2288033"><ele>75.5</ele><time>2026-04-25T07:37:42.716Z</time></trkpt><trkpt lat="46.00877" lon="13.2288067"><ele>75.66666666666666</ele><time>2026-04-25T07:37:43.716Z</time></trkpt><trkpt lat="46.0086683" lon="13.228805"><ele>75.83333333333333</ele><time>2026-04-25T07:37:45.717Z</time></trkpt><trkpt lat="46.0085967" lon="13.2288017"><ele>76.0</ele><time>2026-04-25T07:37:47.716Z</time></trkpt><trkpt lat="46.0085267" lon="13.228775"><ele>76.0</ele><time>2026-04-25T07:37:51.717Z</time></trkpt><trkpt lat="46.00847" lon="13.22865"><ele>76.0</ele><time>2026-04-25T07:37:53.716Z</time></trkpt><trkpt lat="46.0084367" lon="13.2285617"><ele>76.0</ele><time>2026-04-25T07:37:54.717Z</time></trkpt><trkpt lat="46.008395" lon="13.228465"><ele>76.0</ele><time>2026-04-25T07:37:55.717Z</time></trkpt><trkpt lat="46.0083567" lon="13.2283583"><ele>76.0</ele><time>2026-04-25T07:37:56.716Z</time></trkpt><trkpt lat="46.00832" lon="13.22825"><ele>76.0</ele><time>2026-04-25T07:37:57.716Z</time></trkpt><trkpt lat="46.0082783" lon="13.228135"><ele>75.8</ele><time>2026-04-25T07:37:58.717Z</time></trkpt><trkpt lat="46.0082433" lon="13.22801"><ele>75.6</ele><time>2026-04-25T07:37:59.717Z</time></trkpt><trkpt lat="46.0081967" lon="13.227885"><ele>75.4</ele><time>2026-04-25T07:38:00.716Z</time></trkpt><trkpt lat="46.0081467" lon="13.227745"><ele>75.2</ele><time>2026-04-25T07:38:01.716Z</time></trkpt><trkpt lat="46.0080867" lon="13.2275867"><ele>75.0</ele><time>2026-04-25T07:38:02.717Z</time></trkpt><trkpt lat="46.008025" lon="13.227425"><ele>75.0</ele><time>2026-04-25T07:38:03.716Z</time></trkpt><trkpt lat="46.0079767" lon="13.2272783"><ele>75.0</ele><time>2026-04-25T07:38:04.717Z</time></trkpt><trkpt lat="46.0079267" lon="13.227135"><ele>75.0</ele><time>2026-04-25T07:38:05.716Z</time></trkpt><trkpt lat="46.0078817" lon="13.22701"><ele>75.0</ele><time>2026-04-25T07:38:06.716Z</time></trkpt><trkpt lat="46.0078433" lon="13.2268917"><ele>75.0</ele><time>2026-04-25T07:38:07.716Z</time></trkpt><trkpt lat="46.0078133" lon="13.2267867"><ele>74.99999999999999</ele><time>2026-04-25T07:38:08.716Z</time></trkpt><trkpt lat="46.007785" lon="13.2266983"><ele>75.0</ele><time>2026-04-25T07:38:09.717Z</time></trkpt><trkpt lat="46.0077533" lon="13.22658"><ele>75.0</ele><time>2026-04-25T07:38:11.717Z</time></trkpt><trkpt lat="46.007725" lon="13.2264917"><ele>75.0</ele><time>2026-04-25T07:38:13.717Z</time></trkpt><trkpt lat="46.0076817" lon="13.2263917"><ele>75.0</ele><time>2026-04-25T07:38:16.717Z</time></trkpt><trkpt lat="46.0076583" lon="13.226305"><ele>74.99999999999999</ele><time>2026-04-25T07:38:18.717Z</time></trkpt><trkpt lat="46.007635" lon="13.2262033"><ele>75.0</ele><time>2026-04-25T07:38:22.716Z</time></trkpt><trkpt lat="46.0076367" lon="13.2263117"><ele>77.0</ele><time>2026-04-25T07:38:28.716Z</time></trkpt></trkseg></trk></gpx>